<?xml version="1.0" encoding="UTF-8" standalone="no" ?>
<gpx xmlns="http://www.topografix.com/GPX/1/1" xmlns:xsi="http://www.w3.org/2001/XMLSchema-instance" xsi:schemaLocation="http://www.topografix.com/GPX/1/1 http://www.topografix.com/GPX/1/1/gpx.xsd" version="1.1" creator="VisuGPX - https://www.visugpx.com">
  <metadata>
    <name>Sortie Breuillet</name>
    <desc><![CDATA[Sortie du mercredi Sortie du mercredi Sortie du mercredi Sortie du mercredi Sortie du mercredi]]></desc>
  </metadata>
  <wpt lat="45.7171" lon="-1.01674">
    <ele>45.330898</ele>
    <name><![CDATA[Séduire bord ]]></name>
    <link href="./bike_2018-01-10_16-36-51_w0_photo_0.jpg"></link>
  </wpt>
  <wpt lat="45.7245" lon="-1.03615">
    <ele>47.122242</ele>
    <name><![CDATA[Point de cheminement 2]]></name>
  </wpt>
  <wpt lat="45.71047" lon="-1.05502">
    <ele>60.179203</ele>
    <name><![CDATA[Point de cheminement 3]]></name>
  </wpt>
  <trk>
    <name><![CDATA[Breuillet ]]></name>
    <cmt><![CDATA[Vélo (10,0 m | 5 s | 100,0 m)]]></cmt>
    <trkseg>
      <trkpt lat="45.69469" lon="-1.04838">
        <ele>75.025826</ele>
        <time>2018-01-10T13:10:42.752Z</time>
      </trkpt>
      <trkpt lat="45.69463" lon="-1.04852">
        <ele>75.012329</ele>
        <time>2018-01-10T13:10:47.761Z</time>
      </trkpt>
      <trkpt lat="45.69448" lon="-1.04865">
        <ele>75.185287</ele>
        <time>2018-01-10T13:10:56.767Z</time>
      </trkpt>
      <trkpt lat="45.69431" lon="-1.04845">
        <ele>74.130211</ele>
        <time>2018-01-10T13:11:04.842Z</time>
      </trkpt>
      <trkpt lat="45.69414" lon="-1.04832">
        <ele>73.308647</ele>
        <time>2018-01-10T13:11:10.793Z</time>
      </trkpt>
      <trkpt lat="45.69393" lon="-1.04834">
        <ele>72.111557</ele>
        <time>2018-01-10T13:11:17.762Z</time>
      </trkpt>
      <trkpt lat="45.6937" lon="-1.04844">
        <ele>71.790062</ele>
        <time>2018-01-10T13:11:24.861Z</time>
      </trkpt>
      <trkpt lat="45.69347" lon="-1.04826">
        <ele>72.008896</ele>
        <time>2018-01-10T13:11:32.811Z</time>
      </trkpt>
      <trkpt lat="45.69339" lon="-1.04784">
        <ele>72.133644</ele>
        <time>2018-01-10T13:11:40.919Z</time>
      </trkpt>
      <trkpt lat="45.6933" lon="-1.04759">
        <ele>72.665825</ele>
        <time>2018-01-10T13:11:46.807Z</time>
      </trkpt>
      <trkpt lat="45.69318" lon="-1.04732">
        <ele>73.303947</ele>
        <time>2018-01-10T13:11:54.808Z</time>
      </trkpt>
      <trkpt lat="45.6931" lon="-1.04707">
        <ele>73.677124</ele>
        <time>2018-01-10T13:12:00.796Z</time>
      </trkpt>
      <trkpt lat="45.69303" lon="-1.04679">
        <ele>67.692368</ele>
        <time>2018-01-10T13:12:06.791Z</time>
      </trkpt>
      <trkpt lat="45.69294" lon="-1.04652">
        <ele>67.196823</ele>
        <time>2018-01-10T13:12:12.777Z</time>
      </trkpt>
      <trkpt lat="45.69281" lon="-1.04613">
        <ele>68.496964</ele>
        <time>2018-01-10T13:12:20.772Z</time>
      </trkpt>
      <trkpt lat="45.69276" lon="-1.04602">
        <ele>68.637497</ele>
        <time>2018-01-10T13:12:26.856Z</time>
      </trkpt>
      <trkpt lat="45.69256" lon="-1.0461">
        <ele>67.878456</ele>
        <time>2018-01-10T13:12:35.768Z</time>
      </trkpt>
      <trkpt lat="45.69239" lon="-1.04623">
        <ele>67.571594</ele>
        <time>2018-01-10T13:12:43.766Z</time>
      </trkpt>
      <trkpt lat="45.69221" lon="-1.04633">
        <ele>67.123184</ele>
        <time>2018-01-10T13:12:52.756Z</time>
      </trkpt>
      <trkpt lat="45.69202" lon="-1.0464">
        <ele>67.115021</ele>
        <time>2018-01-10T13:13:01.917Z</time>
      </trkpt>
      <trkpt lat="45.69182" lon="-1.04641">
        <ele>66.9039</ele>
        <time>2018-01-10T13:13:10.755Z</time>
      </trkpt>
      <trkpt lat="45.69162" lon="-1.04645">
        <ele>66.840271</ele>
        <time>2018-01-10T13:13:18.761Z</time>
      </trkpt>
      <trkpt lat="45.69143" lon="-1.04646">
        <ele>66.750526</ele>
        <time>2018-01-10T13:13:28.752Z</time>
      </trkpt>
      <trkpt lat="45.69132" lon="-1.04649">
        <ele>68.482025</ele>
        <time>2018-01-10T13:13:49.762Z</time>
      </trkpt>
      <trkpt lat="45.69111" lon="-1.04654">
        <ele>68.162262</ele>
        <time>2018-01-10T13:13:57.783Z</time>
      </trkpt>
      <trkpt lat="45.69088" lon="-1.04664">
        <ele>68.272926</ele>
        <time>2018-01-10T13:14:05.773Z</time>
      </trkpt>
      <trkpt lat="45.69069" lon="-1.04674">
        <ele>68.200768</ele>
        <time>2018-01-10T13:14:11.778Z</time>
      </trkpt>
      <trkpt lat="45.6905" lon="-1.04685">
        <ele>68.286263</ele>
        <time>2018-01-10T13:14:17.795Z</time>
      </trkpt>
      <trkpt lat="45.69031" lon="-1.04695">
        <ele>68.324989</ele>
        <time>2018-01-10T13:14:24.893Z</time>
      </trkpt>
      <trkpt lat="45.69012" lon="-1.04704">
        <ele>68.599838</ele>
        <time>2018-01-10T13:14:33.760Z</time>
      </trkpt>
      <trkpt lat="45.68991" lon="-1.04708">
        <ele>68.617287</ele>
        <time>2018-01-10T13:14:41.759Z</time>
      </trkpt>
      <trkpt lat="45.6897" lon="-1.04713">
        <ele>68.421875</ele>
        <time>2018-01-10T13:14:49.761Z</time>
      </trkpt>
      <trkpt lat="45.68961" lon="-1.0472">
        <ele>68.526833</ele>
        <time>2018-01-10T13:14:54.924Z</time>
      </trkpt>
      <trkpt lat="45.68942" lon="-1.04736">
        <ele>68.829521</ele>
        <time>2018-01-10T13:15:02.923Z</time>
      </trkpt>
      <trkpt lat="45.68924" lon="-1.04755">
        <ele>69.180931</ele>
        <time>2018-01-10T13:15:11.759Z</time>
      </trkpt>
      <trkpt lat="45.68905" lon="-1.0477">
        <ele>69.257515</ele>
        <time>2018-01-10T13:15:17.776Z</time>
      </trkpt>
      <trkpt lat="45.68885" lon="-1.04784">
        <ele>69.676971</ele>
        <time>2018-01-10T13:15:24.954Z</time>
      </trkpt>
      <trkpt lat="45.68866" lon="-1.04797">
        <ele>69.679893</ele>
        <time>2018-01-10T13:15:32.884Z</time>
      </trkpt>
      <trkpt lat="45.68848" lon="-1.04778">
        <ele>70.589439</ele>
        <time>2018-01-10T13:15:40.745Z</time>
      </trkpt>
      <trkpt lat="45.68831" lon="-1.04762">
        <ele>69.474236</ele>
        <time>2018-01-10T13:15:46.766Z</time>
      </trkpt>
      <trkpt lat="45.68813" lon="-1.04747">
        <ele>67.142067</ele>
        <time>2018-01-10T13:15:52.768Z</time>
      </trkpt>
      <trkpt lat="45.68795" lon="-1.04725">
        <ele>65.190369</ele>
        <time>2018-01-10T13:15:58.994Z</time>
      </trkpt>
      <trkpt lat="45.68781" lon="-1.04696">
        <ele>68.331055</ele>
        <time>2018-01-10T13:16:04.772Z</time>
      </trkpt>
      <trkpt lat="45.68772" lon="-1.0465">
        <ele>72.670273</ele>
        <time>2018-01-10T13:16:11.794Z</time>
      </trkpt>
      <trkpt lat="45.68766" lon="-1.04599">
        <ele>73.843399</ele>
        <time>2018-01-10T13:16:18.784Z</time>
      </trkpt>
      <trkpt lat="45.68761" lon="-1.04562">
        <ele>73.701698</ele>
        <time>2018-01-10T13:16:24.782Z</time>
      </trkpt>
      <trkpt lat="45.68755" lon="-1.04523">
        <ele>72.830788</ele>
        <time>2018-01-10T13:16:31.106Z</time>
      </trkpt>
      <trkpt lat="45.68745" lon="-1.04482">
        <ele>71.48922</ele>
        <time>2018-01-10T13:16:36.779Z</time>
      </trkpt>
      <trkpt lat="45.68733" lon="-1.04446">
        <ele>70.767342</ele>
        <time>2018-01-10T13:16:42.925Z</time>
      </trkpt>
      <trkpt lat="45.68721" lon="-1.04418">
        <ele>71.247353</ele>
        <time>2018-01-10T13:16:47.949Z</time>
      </trkpt>
      <trkpt lat="45.68705" lon="-1.04374">
        <ele>70.931023</ele>
        <time>2018-01-10T13:16:55.815Z</time>
      </trkpt>
      <trkpt lat="45.68694" lon="-1.04348">
        <ele>71.009476</ele>
        <time>2018-01-10T13:17:01.793Z</time>
      </trkpt>
      <trkpt lat="45.68684" lon="-1.0432">
        <ele>69.820717</ele>
        <time>2018-01-10T13:17:07.798Z</time>
      </trkpt>
      <trkpt lat="45.68675" lon="-1.04288">
        <ele>68.502777</ele>
        <time>2018-01-10T13:17:13.827Z</time>
      </trkpt>
      <trkpt lat="45.68665" lon="-1.04254">
        <ele>65.144279</ele>
        <time>2018-01-10T13:17:19.804Z</time>
      </trkpt>
      <trkpt lat="45.68657" lon="-1.04223">
        <ele>64.682442</ele>
        <time>2018-01-10T13:17:25.809Z</time>
      </trkpt>
      <trkpt lat="45.68648" lon="-1.04188">
        <ele>64.140709</ele>
        <time>2018-01-10T13:17:31.821Z</time>
      </trkpt>
      <trkpt lat="45.68637" lon="-1.0415">
        <ele>61.990776</ele>
        <time>2018-01-10T13:17:37.779Z</time>
      </trkpt>
      <trkpt lat="45.68624" lon="-1.0411">
        <ele>61.953045</ele>
        <time>2018-01-10T13:17:43.832Z</time>
      </trkpt>
      <trkpt lat="45.68611" lon="-1.0407">
        <ele>61.618145</ele>
        <time>2018-01-10T13:17:49.778Z</time>
      </trkpt>
      <trkpt lat="45.68594" lon="-1.04032">
        <ele>62.012905</ele>
        <time>2018-01-10T13:17:56.867Z</time>
      </trkpt>
      <trkpt lat="45.68579" lon="-1.03997">
        <ele>63.067417</ele>
        <time>2018-01-10T13:18:02.759Z</time>
      </trkpt>
      <trkpt lat="45.68564" lon="-1.03963">
        <ele>62.373383</ele>
        <time>2018-01-10T13:18:08.759Z</time>
      </trkpt>
      <trkpt lat="45.68547" lon="-1.03918">
        <ele>63.761562</ele>
        <time>2018-01-10T13:18:16.759Z</time>
      </trkpt>
      <trkpt lat="45.68539" lon="-1.03888">
        <ele>62.298412</ele>
        <time>2018-01-10T13:18:21.892Z</time>
      </trkpt>
      <trkpt lat="45.68528" lon="-1.03851">
        <ele>62.569878</ele>
        <time>2018-01-10T13:18:27.757Z</time>
      </trkpt>
      <trkpt lat="45.68517" lon="-1.03813">
        <ele>62.887501</ele>
        <time>2018-01-10T13:18:33.747Z</time>
      </trkpt>
      <trkpt lat="45.68501" lon="-1.03766">
        <ele>66.912842</ele>
        <time>2018-01-10T13:18:40.760Z</time>
      </trkpt>
      <trkpt lat="45.68481" lon="-1.03738">
        <ele>75.62812</ele>
        <time>2018-01-10T13:18:47.053Z</time>
      </trkpt>
      <trkpt lat="45.68455" lon="-1.03743">
        <ele>78.839775</ele>
        <time>2018-01-10T13:18:52.759Z</time>
      </trkpt>
      <trkpt lat="45.68433" lon="-1.03761">
        <ele>77.308281</ele>
        <time>2018-01-10T13:18:58.757Z</time>
      </trkpt>
      <trkpt lat="45.68412" lon="-1.03783">
        <ele>75.10392</ele>
        <time>2018-01-10T13:19:04.762Z</time>
      </trkpt>
      <trkpt lat="45.68392" lon="-1.03804">
        <ele>74.632942</ele>
        <time>2018-01-10T13:19:10.759Z</time>
      </trkpt>
      <trkpt lat="45.68376" lon="-1.03824">
        <ele>74.2397</ele>
        <time>2018-01-10T13:19:15.917Z</time>
      </trkpt>
      <trkpt lat="45.68358" lon="-1.03846">
        <ele>71.383621</ele>
        <time>2018-01-10T13:19:21.767Z</time>
      </trkpt>
      <trkpt lat="45.6833" lon="-1.03875">
        <ele>70.181725</ele>
        <time>2018-01-10T13:19:29.774Z</time>
      </trkpt>
      <trkpt lat="45.68299" lon="-1.03881">
        <ele>72.540085</ele>
        <time>2018-01-10T13:19:36.740Z</time>
      </trkpt>
      <trkpt lat="45.68282" lon="-1.03858">
        <ele>71.83905</ele>
        <time>2018-01-10T13:19:42.763Z</time>
      </trkpt>
      <trkpt lat="45.68272" lon="-1.03833">
        <ele>69.116714</ele>
        <time>2018-01-10T13:19:47.769Z</time>
      </trkpt>
      <trkpt lat="45.68259" lon="-1.03805">
        <ele>66.335709</ele>
        <time>2018-01-10T13:19:53.764Z</time>
      </trkpt>
      <trkpt lat="45.68241" lon="-1.03765">
        <ele>65.863289</ele>
        <time>2018-01-10T13:20:01.042Z</time>
      </trkpt>
      <trkpt lat="45.68226" lon="-1.03723">
        <ele>65.63636</ele>
        <time>2018-01-10T13:20:06.760Z</time>
      </trkpt>
      <trkpt lat="45.68214" lon="-1.03678">
        <ele>66.673416</ele>
        <time>2018-01-10T13:20:12.758Z</time>
      </trkpt>
      <trkpt lat="45.68204" lon="-1.03637">
        <ele>69.895226</ele>
        <time>2018-01-10T13:20:18.757Z</time>
      </trkpt>
      <trkpt lat="45.68193" lon="-1.0359">
        <ele>73.473061</ele>
        <time>2018-01-10T13:20:24.757Z</time>
      </trkpt>
      <trkpt lat="45.68182" lon="-1.03543">
        <ele>77.151428</ele>
        <time>2018-01-10T13:20:30.761Z</time>
      </trkpt>
      <trkpt lat="45.6817" lon="-1.03491">
        <ele>75.993004</ele>
        <time>2018-01-10T13:20:36.758Z</time>
      </trkpt>
      <trkpt lat="45.68158" lon="-1.0344">
        <ele>73.207527</ele>
        <time>2018-01-10T13:20:42.757Z</time>
      </trkpt>
      <trkpt lat="45.68147" lon="-1.03395">
        <ele>69.94754</ele>
        <time>2018-01-10T13:20:48.757Z</time>
      </trkpt>
      <trkpt lat="45.68138" lon="-1.03351">
        <ele>65.613182</ele>
        <time>2018-01-10T13:20:55.758Z</time>
      </trkpt>
      <trkpt lat="45.68158" lon="-1.03332">
        <ele>66.274803</ele>
        <time>2018-01-10T13:21:01.761Z</time>
      </trkpt>
      <trkpt lat="45.68189" lon="-1.03308">
        <ele>66.884514</ele>
        <time>2018-01-10T13:21:08.777Z</time>
      </trkpt>
      <trkpt lat="45.68215" lon="-1.03288">
        <ele>69.498184</ele>
        <time>2018-01-10T13:21:14.774Z</time>
      </trkpt>
      <trkpt lat="45.68243" lon="-1.03272">
        <ele>68.374748</ele>
        <time>2018-01-10T13:21:20.759Z</time>
      </trkpt>
      <trkpt lat="45.68274" lon="-1.03262">
        <ele>66.647659</ele>
        <time>2018-01-10T13:21:26.823Z</time>
      </trkpt>
      <trkpt lat="45.68307" lon="-1.03256">
        <ele>66.374771</ele>
        <time>2018-01-10T13:21:33.745Z</time>
      </trkpt>
      <trkpt lat="45.68341" lon="-1.03257">
        <ele>63.861923</ele>
        <time>2018-01-10T13:21:39.755Z</time>
      </trkpt>
      <trkpt lat="45.68377" lon="-1.03268">
        <ele>61.008259</ele>
        <time>2018-01-10T13:21:45.789Z</time>
      </trkpt>
      <trkpt lat="45.68413" lon="-1.03239">
        <ele>58.448017</ele>
        <time>2018-01-10T13:21:51.875Z</time>
      </trkpt>
      <trkpt lat="45.68445" lon="-1.03201">
        <ele>62.152683</ele>
        <time>2018-01-10T13:21:57.866Z</time>
      </trkpt>
      <trkpt lat="45.68477" lon="-1.03161">
        <ele>62.699829</ele>
        <time>2018-01-10T13:22:03.752Z</time>
      </trkpt>
      <trkpt lat="45.68508" lon="-1.03118">
        <ele>59.30851</ele>
        <time>2018-01-10T13:22:09.761Z</time>
      </trkpt>
      <trkpt lat="45.68538" lon="-1.03078">
        <ele>57.512478</ele>
        <time>2018-01-10T13:22:15.845Z</time>
      </trkpt>
      <trkpt lat="45.68567" lon="-1.03042">
        <ele>56.939335</ele>
        <time>2018-01-10T13:22:21.918Z</time>
      </trkpt>
      <trkpt lat="45.68595" lon="-1.03003">
        <ele>54.284096</ele>
        <time>2018-01-10T13:22:27.752Z</time>
      </trkpt>
      <trkpt lat="45.68624" lon="-1.02965">
        <ele>53.330761</ele>
        <time>2018-01-10T13:22:33.876Z</time>
      </trkpt>
      <trkpt lat="45.68654" lon="-1.02931">
        <ele>54.781937</ele>
        <time>2018-01-10T13:22:39.797Z</time>
      </trkpt>
      <trkpt lat="45.6869" lon="-1.02892">
        <ele>52.755283</ele>
        <time>2018-01-10T13:22:45.755Z</time>
      </trkpt>
      <trkpt lat="45.68722" lon="-1.02854">
        <ele>55.779778</ele>
        <time>2018-01-10T13:22:51.865Z</time>
      </trkpt>
      <trkpt lat="45.68752" lon="-1.02818">
        <ele>54.281357</ele>
        <time>2018-01-10T13:22:57.829Z</time>
      </trkpt>
      <trkpt lat="45.68782" lon="-1.02782">
        <ele>52.006123</ele>
        <time>2018-01-10T13:23:03.747Z</time>
      </trkpt>
      <trkpt lat="45.68812" lon="-1.02746">
        <ele>54.242229</ele>
        <time>2018-01-10T13:23:09.956Z</time>
      </trkpt>
      <trkpt lat="45.6884" lon="-1.02716">
        <ele>53.818687</ele>
        <time>2018-01-10T13:23:15.754Z</time>
      </trkpt>
      <trkpt lat="45.68871" lon="-1.02684">
        <ele>52.85099</ele>
        <time>2018-01-10T13:23:21.765Z</time>
      </trkpt>
      <trkpt lat="45.68899" lon="-1.02647">
        <ele>51.037079</ele>
        <time>2018-01-10T13:23:27.892Z</time>
      </trkpt>
      <trkpt lat="45.68925" lon="-1.02613">
        <ele>53.582169</ele>
        <time>2018-01-10T13:23:33.784Z</time>
      </trkpt>
      <trkpt lat="45.68951" lon="-1.02576">
        <ele>50.028492</ele>
        <time>2018-01-10T13:23:39.777Z</time>
      </trkpt>
      <trkpt lat="45.68978" lon="-1.02543">
        <ele>47.220001</ele>
        <time>2018-01-10T13:23:45.761Z</time>
      </trkpt>
      <trkpt lat="45.69005" lon="-1.02513">
        <ele>45.624672</ele>
        <time>2018-01-10T13:23:51.785Z</time>
      </trkpt>
      <trkpt lat="45.69025" lon="-1.02496">
        <ele>47.084946</ele>
        <time>2018-01-10T13:23:57.763Z</time>
      </trkpt>
      <trkpt lat="45.69041" lon="-1.02482">
        <ele>48.408096</ele>
        <time>2018-01-10T13:24:08.739Z</time>
      </trkpt>
      <trkpt lat="45.69062" lon="-1.02474">
        <ele>48.737488</ele>
        <time>2018-01-10T13:24:15.759Z</time>
      </trkpt>
      <trkpt lat="45.69083" lon="-1.02462">
        <ele>52.653179</ele>
        <time>2018-01-10T13:24:21.761Z</time>
      </trkpt>
      <trkpt lat="45.69107" lon="-1.02451">
        <ele>51.905716</ele>
        <time>2018-01-10T13:24:27.944Z</time>
      </trkpt>
      <trkpt lat="45.69129" lon="-1.02439">
        <ele>50.633087</ele>
        <time>2018-01-10T13:24:33.827Z</time>
      </trkpt>
      <trkpt lat="45.69162" lon="-1.02418">
        <ele>53.079819</ele>
        <time>2018-01-10T13:24:40.806Z</time>
      </trkpt>
      <trkpt lat="45.69192" lon="-1.02393">
        <ele>54.295151</ele>
        <time>2018-01-10T13:24:46.947Z</time>
      </trkpt>
      <trkpt lat="45.69222" lon="-1.02367">
        <ele>52.890839</ele>
        <time>2018-01-10T13:24:53.966Z</time>
      </trkpt>
      <trkpt lat="45.69249" lon="-1.02341">
        <ele>50.983799</ele>
        <time>2018-01-10T13:24:59.774Z</time>
      </trkpt>
      <trkpt lat="45.69275" lon="-1.02313">
        <ele>49.125675</ele>
        <time>2018-01-10T13:25:05.794Z</time>
      </trkpt>
      <trkpt lat="45.693" lon="-1.02286">
        <ele>48.758186</ele>
        <time>2018-01-10T13:25:11.773Z</time>
      </trkpt>
      <trkpt lat="45.69328" lon="-1.02257">
        <ele>46.832413</ele>
        <time>2018-01-10T13:25:17.775Z</time>
      </trkpt>
      <trkpt lat="45.69359" lon="-1.02226">
        <ele>49.361042</ele>
        <time>2018-01-10T13:25:23.977Z</time>
      </trkpt>
      <trkpt lat="45.69389" lon="-1.02195">
        <ele>48.831139</ele>
        <time>2018-01-10T13:25:29.804Z</time>
      </trkpt>
      <trkpt lat="45.69421" lon="-1.02155">
        <ele>47.606728</ele>
        <time>2018-01-10T13:25:35.746Z</time>
      </trkpt>
      <trkpt lat="45.69447" lon="-1.02115">
        <ele>46.791447</ele>
        <time>2018-01-10T13:25:41.783Z</time>
      </trkpt>
      <trkpt lat="45.69471" lon="-1.0208">
        <ele>46.718754</ele>
        <time>2018-01-10T13:25:47.862Z</time>
      </trkpt>
      <trkpt lat="45.695" lon="-1.02074">
        <ele>46.510078</ele>
        <time>2018-01-10T13:25:53.783Z</time>
      </trkpt>
      <trkpt lat="45.69531" lon="-1.02082">
        <ele>42.378933</ele>
        <time>2018-01-10T13:25:59.786Z</time>
      </trkpt>
      <trkpt lat="45.69563" lon="-1.02085">
        <ele>38.946655</ele>
        <time>2018-01-10T13:26:05.788Z</time>
      </trkpt>
      <trkpt lat="45.69594" lon="-1.02078">
        <ele>38.310104</ele>
        <time>2018-01-10T13:26:11.793Z</time>
      </trkpt>
      <trkpt lat="45.69626" lon="-1.02067">
        <ele>44.72142</ele>
        <time>2018-01-10T13:26:18.047Z</time>
      </trkpt>
      <trkpt lat="45.6966" lon="-1.02058">
        <ele>47.609978</ele>
        <time>2018-01-10T13:26:23.977Z</time>
      </trkpt>
      <trkpt lat="45.69694" lon="-1.02052">
        <ele>46.598106</ele>
        <time>2018-01-10T13:26:29.770Z</time>
      </trkpt>
      <trkpt lat="45.69729" lon="-1.02046">
        <ele>47.845455</ele>
        <time>2018-01-10T13:26:35.797Z</time>
      </trkpt>
      <trkpt lat="45.69761" lon="-1.02044">
        <ele>50.770119</ele>
        <time>2018-01-10T13:26:42.006Z</time>
      </trkpt>
      <trkpt lat="45.69795" lon="-1.02042">
        <ele>50.04459</ele>
        <time>2018-01-10T13:26:47.798Z</time>
      </trkpt>
      <trkpt lat="45.69829" lon="-1.02044">
        <ele>49.726284</ele>
        <time>2018-01-10T13:26:54.006Z</time>
      </trkpt>
      <trkpt lat="45.6986" lon="-1.02046">
        <ele>49.556</ele>
        <time>2018-01-10T13:26:59.739Z</time>
      </trkpt>
      <trkpt lat="45.69891" lon="-1.02049">
        <ele>49.048141</ele>
        <time>2018-01-10T13:27:05.757Z</time>
      </trkpt>
      <trkpt lat="45.69923" lon="-1.02053">
        <ele>47.473148</ele>
        <time>2018-01-10T13:27:12.025Z</time>
      </trkpt>
      <trkpt lat="45.69953" lon="-1.02056">
        <ele>48.109768</ele>
        <time>2018-01-10T13:27:17.757Z</time>
      </trkpt>
      <trkpt lat="45.69985" lon="-1.02059">
        <ele>49.683544</ele>
        <time>2018-01-10T13:27:23.909Z</time>
      </trkpt>
      <trkpt lat="45.70019" lon="-1.02059">
        <ele>49.267967</ele>
        <time>2018-01-10T13:27:29.755Z</time>
      </trkpt>
      <trkpt lat="45.70053" lon="-1.02056">
        <ele>47.430439</ele>
        <time>2018-01-10T13:27:35.759Z</time>
      </trkpt>
      <trkpt lat="45.70089" lon="-1.02053">
        <ele>46.371731</ele>
        <time>2018-01-10T13:27:42.072Z</time>
      </trkpt>
      <trkpt lat="45.70126" lon="-1.02048">
        <ele>48.936707</ele>
        <time>2018-01-10T13:27:47.758Z</time>
      </trkpt>
      <trkpt lat="45.70165" lon="-1.02045">
        <ele>46.500561</ele>
        <time>2018-01-10T13:27:53.756Z</time>
      </trkpt>
      <trkpt lat="45.70207" lon="-1.02045">
        <ele>46.749546</ele>
        <time>2018-01-10T13:27:59.741Z</time>
      </trkpt>
      <trkpt lat="45.70244" lon="-1.02045">
        <ele>49.526718</ele>
        <time>2018-01-10T13:28:05.737Z</time>
      </trkpt>
      <trkpt lat="45.70266" lon="-1.02044">
        <ele>50.170616</ele>
        <time>2018-01-10T13:28:11.758Z</time>
      </trkpt>
      <trkpt lat="45.70266" lon="-1.0203">
        <ele>49.551094</ele>
        <time>2018-01-10T13:28:17.760Z</time>
      </trkpt>
      <trkpt lat="45.70262" lon="-1.01999">
        <ele>50.923859</ele>
        <time>2018-01-10T13:28:24.762Z</time>
      </trkpt>
      <trkpt lat="45.70274" lon="-1.01961">
        <ele>50.26495</ele>
        <time>2018-01-10T13:28:30.765Z</time>
      </trkpt>
      <trkpt lat="45.70303" lon="-1.01942">
        <ele>52.670555</ele>
        <time>2018-01-10T13:28:37.788Z</time>
      </trkpt>
      <trkpt lat="45.70331" lon="-1.01925">
        <ele>54.070183</ele>
        <time>2018-01-10T13:28:44.765Z</time>
      </trkpt>
      <trkpt lat="45.70348" lon="-1.01905">
        <ele>51.880573</ele>
        <time>2018-01-10T13:28:51.758Z</time>
      </trkpt>
      <trkpt lat="45.70366" lon="-1.01879">
        <ele>49.895409</ele>
        <time>2018-01-10T13:28:57.842Z</time>
      </trkpt>
      <trkpt lat="45.70368" lon="-1.01852">
        <ele>50.116146</ele>
        <time>2018-01-10T13:29:04.764Z</time>
      </trkpt>
      <trkpt lat="45.70356" lon="-1.0183">
        <ele>49.645969</ele>
        <time>2018-01-10T13:29:10.748Z</time>
      </trkpt>
      <trkpt lat="45.7036" lon="-1.01816">
        <ele>49.530998</ele>
        <time>2018-01-10T13:29:15.785Z</time>
      </trkpt>
      <trkpt lat="45.70386" lon="-1.01795">
        <ele>46.751453</ele>
        <time>2018-01-10T13:29:24.763Z</time>
      </trkpt>
      <trkpt lat="45.70399" lon="-1.01815">
        <ele>45.842819</ele>
        <time>2018-01-10T13:29:31.763Z</time>
      </trkpt>
      <trkpt lat="45.70413" lon="-1.01843">
        <ele>46.822926</ele>
        <time>2018-01-10T13:29:37.744Z</time>
      </trkpt>
      <trkpt lat="45.70424" lon="-1.0187">
        <ele>45.750526</ele>
        <time>2018-01-10T13:29:42.764Z</time>
      </trkpt>
      <trkpt lat="45.7043" lon="-1.01911">
        <ele>47.487545</ele>
        <time>2018-01-10T13:29:48.763Z</time>
      </trkpt>
      <trkpt lat="45.70427" lon="-1.01959">
        <ele>48.82489</ele>
        <time>2018-01-10T13:29:56.745Z</time>
      </trkpt>
      <trkpt lat="45.70424" lon="-1.01993">
        <ele>47.675167</ele>
        <time>2018-01-10T13:30:02.783Z</time>
      </trkpt>
      <trkpt lat="45.7042" lon="-1.02038">
        <ele>48.014988</ele>
        <time>2018-01-10T13:30:09.745Z</time>
      </trkpt>
      <trkpt lat="45.7042" lon="-1.02071">
        <ele>48.323769</ele>
        <time>2018-01-10T13:30:15.758Z</time>
      </trkpt>
      <trkpt lat="45.70416" lon="-1.02105">
        <ele>46.632336</ele>
        <time>2018-01-10T13:30:21.767Z</time>
      </trkpt>
      <trkpt lat="45.70405" lon="-1.02152">
        <ele>46.611454</ele>
        <time>2018-01-10T13:30:28.761Z</time>
      </trkpt>
      <trkpt lat="45.70396" lon="-1.02194">
        <ele>48.538925</ele>
        <time>2018-01-10T13:30:35.772Z</time>
      </trkpt>
      <trkpt lat="45.70394" lon="-1.02223">
        <ele>49.678585</ele>
        <time>2018-01-10T13:30:42.157Z</time>
      </trkpt>
      <trkpt lat="45.70409" lon="-1.02246">
        <ele>51.845139</ele>
        <time>2018-01-10T13:30:47.762Z</time>
      </trkpt>
      <trkpt lat="45.70438" lon="-1.02273">
        <ele>50.158627</ele>
        <time>2018-01-10T13:30:55.755Z</time>
      </trkpt>
      <trkpt lat="45.70457" lon="-1.02289">
        <ele>48.599411</ele>
        <time>2018-01-10T13:31:00.773Z</time>
      </trkpt>
      <trkpt lat="45.70483" lon="-1.0231">
        <ele>45.993164</ele>
        <time>2018-01-10T13:31:06.742Z</time>
      </trkpt>
      <trkpt lat="45.70508" lon="-1.02333">
        <ele>45.338776</ele>
        <time>2018-01-10T13:31:12.762Z</time>
      </trkpt>
      <trkpt lat="45.70537" lon="-1.02359">
        <ele>44.89323</ele>
        <time>2018-01-10T13:31:18.741Z</time>
      </trkpt>
      <trkpt lat="45.70568" lon="-1.02349">
        <ele>44.087452</ele>
        <time>2018-01-10T13:31:25.755Z</time>
      </trkpt>
      <trkpt lat="45.70595" lon="-1.02328">
        <ele>44.178371</ele>
        <time>2018-01-10T13:31:31.757Z</time>
      </trkpt>
      <trkpt lat="45.70625" lon="-1.02318">
        <ele>47.221977</ele>
        <time>2018-01-10T13:31:37.743Z</time>
      </trkpt>
      <trkpt lat="45.70662" lon="-1.0232">
        <ele>45.314789</ele>
        <time>2018-01-10T13:31:43.756Z</time>
      </trkpt>
      <trkpt lat="45.70694" lon="-1.02335">
        <ele>46.585262</ele>
        <time>2018-01-10T13:31:49.738Z</time>
      </trkpt>
      <trkpt lat="45.70727" lon="-1.02359">
        <ele>48.171055</ele>
        <time>2018-01-10T13:31:55.754Z</time>
      </trkpt>
      <trkpt lat="45.70759" lon="-1.0238">
        <ele>48.480343</ele>
        <time>2018-01-10T13:32:01.742Z</time>
      </trkpt>
      <trkpt lat="45.70794" lon="-1.02392">
        <ele>48.678391</ele>
        <time>2018-01-10T13:32:07.741Z</time>
      </trkpt>
      <trkpt lat="45.70827" lon="-1.024">
        <ele>47.157188</ele>
        <time>2018-01-10T13:32:13.758Z</time>
      </trkpt>
      <trkpt lat="45.70859" lon="-1.024">
        <ele>45.083511</ele>
        <time>2018-01-10T13:32:19.808Z</time>
      </trkpt>
      <trkpt lat="45.70892" lon="-1.02397">
        <ele>44.895237</ele>
        <time>2018-01-10T13:32:25.756Z</time>
      </trkpt>
      <trkpt lat="45.70929" lon="-1.02398">
        <ele>46.362049</ele>
        <time>2018-01-10T13:32:31.758Z</time>
      </trkpt>
      <trkpt lat="45.7096" lon="-1.02411">
        <ele>46.02356</ele>
        <time>2018-01-10T13:32:37.757Z</time>
      </trkpt>
      <trkpt lat="45.70989" lon="-1.02431">
        <ele>43.557396</ele>
        <time>2018-01-10T13:32:43.747Z</time>
      </trkpt>
      <trkpt lat="45.71016" lon="-1.0246">
        <ele>42.591518</ele>
        <time>2018-01-10T13:32:49.744Z</time>
      </trkpt>
      <trkpt lat="45.71043" lon="-1.02495">
        <ele>43.638645</ele>
        <time>2018-01-10T13:32:55.764Z</time>
      </trkpt>
      <trkpt lat="45.71066" lon="-1.02531">
        <ele>45.111492</ele>
        <time>2018-01-10T13:33:01.761Z</time>
      </trkpt>
      <trkpt lat="45.71086" lon="-1.02568">
        <ele>45.929119</ele>
        <time>2018-01-10T13:33:07.935Z</time>
      </trkpt>
      <trkpt lat="45.71108" lon="-1.02605">
        <ele>47.696987</ele>
        <time>2018-01-10T13:33:13.787Z</time>
      </trkpt>
      <trkpt lat="45.71121" lon="-1.0263">
        <ele>48.39698</ele>
        <time>2018-01-10T13:33:19.795Z</time>
      </trkpt>
      <trkpt lat="45.71138" lon="-1.02629">
        <ele>46.610973</ele>
        <time>2018-01-10T13:33:25.799Z</time>
      </trkpt>
      <trkpt lat="45.71153" lon="-1.02602">
        <ele>43.726662</ele>
        <time>2018-01-10T13:33:31.764Z</time>
      </trkpt>
      <trkpt lat="45.71171" lon="-1.02568">
        <ele>42.745007</ele>
        <time>2018-01-10T13:33:37.738Z</time>
      </trkpt>
      <trkpt lat="45.71192" lon="-1.02533">
        <ele>44.193451</ele>
        <time>2018-01-10T13:33:43.778Z</time>
      </trkpt>
      <trkpt lat="45.71212" lon="-1.02497">
        <ele>46.814175</ele>
        <time>2018-01-10T13:33:49.758Z</time>
      </trkpt>
      <trkpt lat="45.71234" lon="-1.0246">
        <ele>45.278366</ele>
        <time>2018-01-10T13:33:55.779Z</time>
      </trkpt>
      <trkpt lat="45.71248" lon="-1.02422">
        <ele>39.899319</ele>
        <time>2018-01-10T13:34:01.828Z</time>
      </trkpt>
      <trkpt lat="45.71255" lon="-1.02376">
        <ele>42.354614</ele>
        <time>2018-01-10T13:34:07.754Z</time>
      </trkpt>
      <trkpt lat="45.71261" lon="-1.02329">
        <ele>40.649513</ele>
        <time>2018-01-10T13:34:13.756Z</time>
      </trkpt>
      <trkpt lat="45.71274" lon="-1.02297">
        <ele>39.613914</ele>
        <time>2018-01-10T13:34:18.810Z</time>
      </trkpt>
      <trkpt lat="45.71299" lon="-1.02268">
        <ele>43.850784</ele>
        <time>2018-01-10T13:34:24.760Z</time>
      </trkpt>
      <trkpt lat="45.71331" lon="-1.02245">
        <ele>42.814842</ele>
        <time>2018-01-10T13:34:30.743Z</time>
      </trkpt>
      <trkpt lat="45.71356" lon="-1.02219">
        <ele>39.544254</ele>
        <time>2018-01-10T13:34:36.777Z</time>
      </trkpt>
      <trkpt lat="45.7138" lon="-1.02188">
        <ele>39.042484</ele>
        <time>2018-01-10T13:34:42.783Z</time>
      </trkpt>
      <trkpt lat="45.71397" lon="-1.02152">
        <ele>36.204247</ele>
        <time>2018-01-10T13:34:48.758Z</time>
      </trkpt>
      <trkpt lat="45.71416" lon="-1.02116">
        <ele>38.737545</ele>
        <time>2018-01-10T13:34:54.759Z</time>
      </trkpt>
      <trkpt lat="45.71445" lon="-1.02094">
        <ele>39.893604</ele>
        <time>2018-01-10T13:35:00.762Z</time>
      </trkpt>
      <trkpt lat="45.71474" lon="-1.02071">
        <ele>36.806915</ele>
        <time>2018-01-10T13:35:06.739Z</time>
      </trkpt>
      <trkpt lat="45.71497" lon="-1.02038">
        <ele>39.751564</ele>
        <time>2018-01-10T13:35:12.761Z</time>
      </trkpt>
      <trkpt lat="45.7152" lon="-1.02004">
        <ele>39.81802</ele>
        <time>2018-01-10T13:35:18.849Z</time>
      </trkpt>
      <trkpt lat="45.71546" lon="-1.01971">
        <ele>42.41555</ele>
        <time>2018-01-10T13:35:24.741Z</time>
      </trkpt>
      <trkpt lat="45.71572" lon="-1.01935">
        <ele>45.159096</ele>
        <time>2018-01-10T13:35:30.754Z</time>
      </trkpt>
      <trkpt lat="45.71593" lon="-1.01901">
        <ele>46.896908</ele>
        <time>2018-01-10T13:35:36.846Z</time>
      </trkpt>
      <trkpt lat="45.71616" lon="-1.01865">
        <ele>45.897293</ele>
        <time>2018-01-10T13:35:42.758Z</time>
      </trkpt>
      <trkpt lat="45.71637" lon="-1.01827">
        <ele>47.096786</ele>
        <time>2018-01-10T13:35:48.956Z</time>
      </trkpt>
      <trkpt lat="45.71656" lon="-1.01794">
        <ele>48.500935</ele>
        <time>2018-01-10T13:35:54.757Z</time>
      </trkpt>
      <trkpt lat="45.71675" lon="-1.01759">
        <ele>47.015518</ele>
        <time>2018-01-10T13:36:01.738Z</time>
      </trkpt>
      <trkpt lat="45.71688" lon="-1.01733">
        <ele>44.725456</ele>
        <time>2018-01-10T13:36:07.761Z</time>
      </trkpt>
      <trkpt lat="45.717" lon="-1.01711">
        <ele>44.599319</ele>
        <time>2018-01-10T13:36:13.936Z</time>
      </trkpt>
      <trkpt lat="45.71708" lon="-1.01688">
        <ele>45.054371</ele>
        <time>2018-01-10T13:36:19.762Z</time>
      </trkpt>
      <trkpt lat="45.7172" lon="-1.01673">
        <ele>46.681904</ele>
        <time>2018-01-10T13:39:14.763Z</time>
      </trkpt>
      <trkpt lat="45.71719" lon="-1.017">
        <ele>47.379333</ele>
        <time>2018-01-10T13:39:23.765Z</time>
      </trkpt>
      <trkpt lat="45.71706" lon="-1.01721">
        <ele>48.354237</ele>
        <time>2018-01-10T13:39:30.769Z</time>
      </trkpt>
      <trkpt lat="45.71691" lon="-1.01744">
        <ele>49.037571</ele>
        <time>2018-01-10T13:39:36.768Z</time>
      </trkpt>
      <trkpt lat="45.71677" lon="-1.01767">
        <ele>51.007641</ele>
        <time>2018-01-10T13:39:42.736Z</time>
      </trkpt>
      <trkpt lat="45.71662" lon="-1.01794">
        <ele>52.309956</ele>
        <time>2018-01-10T13:39:48.771Z</time>
      </trkpt>
      <trkpt lat="45.71648" lon="-1.0182">
        <ele>53.698788</ele>
        <time>2018-01-10T13:39:54.767Z</time>
      </trkpt>
      <trkpt lat="45.71633" lon="-1.0185">
        <ele>51.859188</ele>
        <time>2018-01-10T13:40:00.769Z</time>
      </trkpt>
      <trkpt lat="45.71616" lon="-1.01887">
        <ele>52.085022</ele>
        <time>2018-01-10T13:40:07.745Z</time>
      </trkpt>
      <trkpt lat="45.71592" lon="-1.01924">
        <ele>51.425426</ele>
        <time>2018-01-10T13:40:15.755Z</time>
      </trkpt>
      <trkpt lat="45.71577" lon="-1.01948">
        <ele>51.473274</ele>
        <time>2018-01-10T13:40:20.766Z</time>
      </trkpt>
      <trkpt lat="45.71554" lon="-1.01984">
        <ele>54.165932</ele>
        <time>2018-01-10T13:40:27.769Z</time>
      </trkpt>
      <trkpt lat="45.71536" lon="-1.02009">
        <ele>55.121063</ele>
        <time>2018-01-10T13:40:33.769Z</time>
      </trkpt>
      <trkpt lat="45.71516" lon="-1.02038">
        <ele>53.563721</ele>
        <time>2018-01-10T13:40:39.770Z</time>
      </trkpt>
      <trkpt lat="45.71493" lon="-1.02068">
        <ele>52.551243</ele>
        <time>2018-01-10T13:40:46.766Z</time>
      </trkpt>
      <trkpt lat="45.71476" lon="-1.0209">
        <ele>51.488346</ele>
        <time>2018-01-10T13:40:51.773Z</time>
      </trkpt>
      <trkpt lat="45.71445" lon="-1.02114">
        <ele>50.002338</ele>
        <time>2018-01-10T13:40:59.768Z</time>
      </trkpt>
      <trkpt lat="45.71425" lon="-1.02139">
        <ele>49.892773</ele>
        <time>2018-01-10T13:41:05.768Z</time>
      </trkpt>
      <trkpt lat="45.71412" lon="-1.02166">
        <ele>49.588505</ele>
        <time>2018-01-10T13:41:11.780Z</time>
      </trkpt>
      <trkpt lat="45.7139" lon="-1.02197">
        <ele>50.825283</ele>
        <time>2018-01-10T13:41:18.767Z</time>
      </trkpt>
      <trkpt lat="45.7137" lon="-1.0222">
        <ele>50.496284</ele>
        <time>2018-01-10T13:41:24.749Z</time>
      </trkpt>
      <trkpt lat="45.71347" lon="-1.02249">
        <ele>52.996887</ele>
        <time>2018-01-10T13:41:30.763Z</time>
      </trkpt>
      <trkpt lat="45.71324" lon="-1.02274">
        <ele>51.279961</ele>
        <time>2018-01-10T13:41:36.770Z</time>
      </trkpt>
      <trkpt lat="45.713" lon="-1.02293">
        <ele>51.196285</ele>
        <time>2018-01-10T13:41:42.768Z</time>
      </trkpt>
      <trkpt lat="45.71283" lon="-1.02316">
        <ele>51.347897</ele>
        <time>2018-01-10T13:41:47.768Z</time>
      </trkpt>
      <trkpt lat="45.71274" lon="-1.02345">
        <ele>50.667751</ele>
        <time>2018-01-10T13:41:52.773Z</time>
      </trkpt>
      <trkpt lat="45.71269" lon="-1.02377">
        <ele>51.081623</ele>
        <time>2018-01-10T13:41:57.791Z</time>
      </trkpt>
      <trkpt lat="45.71263" lon="-1.0242">
        <ele>50.179264</ele>
        <time>2018-01-10T13:42:03.775Z</time>
      </trkpt>
      <trkpt lat="45.71251" lon="-1.02457">
        <ele>52.284409</ele>
        <time>2018-01-10T13:42:09.752Z</time>
      </trkpt>
      <trkpt lat="45.71237" lon="-1.02483">
        <ele>55.060768</ele>
        <time>2018-01-10T13:42:14.769Z</time>
      </trkpt>
      <trkpt lat="45.71217" lon="-1.02519">
        <ele>56.837765</ele>
        <time>2018-01-10T13:42:21.767Z</time>
      </trkpt>
      <trkpt lat="45.71202" lon="-1.02544">
        <ele>57.31353</ele>
        <time>2018-01-10T13:42:26.768Z</time>
      </trkpt>
      <trkpt lat="45.7118" lon="-1.02584">
        <ele>56.653057</ele>
        <time>2018-01-10T13:42:34.748Z</time>
      </trkpt>
      <trkpt lat="45.71161" lon="-1.02617">
        <ele>55.06385</ele>
        <time>2018-01-10T13:42:40.749Z</time>
      </trkpt>
      <trkpt lat="45.71145" lon="-1.02644">
        <ele>53.535748</ele>
        <time>2018-01-10T13:42:46.749Z</time>
      </trkpt>
      <trkpt lat="45.71132" lon="-1.02669">
        <ele>51.114433</ele>
        <time>2018-01-10T13:42:51.768Z</time>
      </trkpt>
      <trkpt lat="45.71111" lon="-1.02707">
        <ele>50.933533</ele>
        <time>2018-01-10T13:42:59.768Z</time>
      </trkpt>
      <trkpt lat="45.71113" lon="-1.02737">
        <ele>50.970543</ele>
        <time>2018-01-10T13:43:06.775Z</time>
      </trkpt>
      <trkpt lat="45.71124" lon="-1.02779">
        <ele>50.028316</ele>
        <time>2018-01-10T13:43:14.780Z</time>
      </trkpt>
      <trkpt lat="45.71136" lon="-1.02804">
        <ele>47.823601</ele>
        <time>2018-01-10T13:43:20.751Z</time>
      </trkpt>
      <trkpt lat="45.71147" lon="-1.02832">
        <ele>48.180771</ele>
        <time>2018-01-10T13:43:25.768Z</time>
      </trkpt>
      <trkpt lat="45.71145" lon="-1.02864">
        <ele>47.660454</ele>
        <time>2018-01-10T13:43:31.754Z</time>
      </trkpt>
      <trkpt lat="45.71136" lon="-1.02896">
        <ele>51.929638</ele>
        <time>2018-01-10T13:43:37.773Z</time>
      </trkpt>
      <trkpt lat="45.71127" lon="-1.02924">
        <ele>52.832794</ele>
        <time>2018-01-10T13:43:43.773Z</time>
      </trkpt>
      <trkpt lat="45.71106" lon="-1.02957">
        <ele>51.891109</ele>
        <time>2018-01-10T13:43:50.771Z</time>
      </trkpt>
      <trkpt lat="45.71098" lon="-1.02972">
        <ele>52.490131</ele>
        <time>2018-01-10T13:43:56.803Z</time>
      </trkpt>
      <trkpt lat="45.71103" lon="-1.03005">
        <ele>52.030201</ele>
        <time>2018-01-10T13:44:02.788Z</time>
      </trkpt>
      <trkpt lat="45.71108" lon="-1.03039">
        <ele>52.121639</ele>
        <time>2018-01-10T13:44:08.813Z</time>
      </trkpt>
      <trkpt lat="45.71115" lon="-1.03066">
        <ele>52.147366</ele>
        <time>2018-01-10T13:44:14.746Z</time>
      </trkpt>
      <trkpt lat="45.71125" lon="-1.03092">
        <ele>51.642319</ele>
        <time>2018-01-10T13:44:32.912Z</time>
      </trkpt>
      <trkpt lat="45.71127" lon="-1.03107">
        <ele>51.540363</ele>
        <time>2018-01-10T13:44:48.765Z</time>
      </trkpt>
      <trkpt lat="45.71131" lon="-1.0312">
        <ele>50.818211</ele>
        <time>2018-01-10T13:44:53.803Z</time>
      </trkpt>
      <trkpt lat="45.71141" lon="-1.03144">
        <ele>50.237389</ele>
        <time>2018-01-10T13:45:00.765Z</time>
      </trkpt>
      <trkpt lat="45.71153" lon="-1.03167">
        <ele>49.608395</ele>
        <time>2018-01-10T13:45:07.817Z</time>
      </trkpt>
      <trkpt lat="45.71164" lon="-1.03193">
        <ele>48.49519</ele>
        <time>2018-01-10T13:45:15.765Z</time>
      </trkpt>
      <trkpt lat="45.71173" lon="-1.03218">
        <ele>46.837318</ele>
        <time>2018-01-10T13:45:23.813Z</time>
      </trkpt>
      <trkpt lat="45.71179" lon="-1.03231">
        <ele>45.803921</ele>
        <time>2018-01-10T13:45:29.767Z</time>
      </trkpt>
      <trkpt lat="45.7118" lon="-1.03246">
        <ele>43.602009</ele>
        <time>2018-01-10T13:45:45.763Z</time>
      </trkpt>
      <trkpt lat="45.71173" lon="-1.03237">
        <ele>43.703434</ele>
        <time>2018-01-10T13:45:53.838Z</time>
      </trkpt>
      <trkpt lat="45.71165" lon="-1.03214">
        <ele>43.877319</ele>
        <time>2018-01-10T13:46:06.768Z</time>
      </trkpt>
      <trkpt lat="45.71156" lon="-1.03217">
        <ele>45.545086</ele>
        <time>2018-01-10T13:46:21.765Z</time>
      </trkpt>
      <trkpt lat="45.71146" lon="-1.03216">
        <ele>47.488892</ele>
        <time>2018-01-10T13:46:31.846Z</time>
      </trkpt>
      <trkpt lat="45.71137" lon="-1.03216">
        <ele>48.052116</ele>
        <time>2018-01-10T13:46:36.858Z</time>
      </trkpt>
      <trkpt lat="45.7112" lon="-1.03228">
        <ele>49.373066</ele>
        <time>2018-01-10T13:46:44.772Z</time>
      </trkpt>
      <trkpt lat="45.71112" lon="-1.03234">
        <ele>50.19912</ele>
        <time>2018-01-10T13:46:49.783Z</time>
      </trkpt>
      <trkpt lat="45.71096" lon="-1.03253">
        <ele>51.387833</ele>
        <time>2018-01-10T13:46:58.742Z</time>
      </trkpt>
      <trkpt lat="45.71085" lon="-1.0325">
        <ele>51.942554</ele>
        <time>2018-01-10T13:47:17.763Z</time>
      </trkpt>
      <trkpt lat="45.71064" lon="-1.03249">
        <ele>52.580742</ele>
        <time>2018-01-10T13:47:24.859Z</time>
      </trkpt>
      <trkpt lat="45.71046" lon="-1.03258">
        <ele>52.876553</ele>
        <time>2018-01-10T13:47:31.775Z</time>
      </trkpt>
      <trkpt lat="45.71051" lon="-1.03287">
        <ele>53.136616</ele>
        <time>2018-01-10T13:47:37.767Z</time>
      </trkpt>
      <trkpt lat="45.71059" lon="-1.03315">
        <ele>53.235306</ele>
        <time>2018-01-10T13:47:43.751Z</time>
      </trkpt>
      <trkpt lat="45.71067" lon="-1.03346">
        <ele>53.088966</ele>
        <time>2018-01-10T13:47:50.285Z</time>
      </trkpt>
      <trkpt lat="45.71075" lon="-1.03374">
        <ele>52.482868</ele>
        <time>2018-01-10T13:47:55.750Z</time>
      </trkpt>
      <trkpt lat="45.71082" lon="-1.03407">
        <ele>52.161892</ele>
        <time>2018-01-10T13:48:01.742Z</time>
      </trkpt>
      <trkpt lat="45.71093" lon="-1.03431">
        <ele>52.488422</ele>
        <time>2018-01-10T13:48:07.913Z</time>
      </trkpt>
      <trkpt lat="45.71103" lon="-1.03469">
        <ele>50.226643</ele>
        <time>2018-01-10T13:48:13.797Z</time>
      </trkpt>
      <trkpt lat="45.71116" lon="-1.03509">
        <ele>50.230591</ele>
        <time>2018-01-10T13:48:19.773Z</time>
      </trkpt>
      <trkpt lat="45.71137" lon="-1.03539">
        <ele>52.15971</ele>
        <time>2018-01-10T13:48:27.794Z</time>
      </trkpt>
      <trkpt lat="45.71168" lon="-1.03527">
        <ele>51.945637</ele>
        <time>2018-01-10T13:48:34.788Z</time>
      </trkpt>
      <trkpt lat="45.71197" lon="-1.03512">
        <ele>50.828362</ele>
        <time>2018-01-10T13:48:40.783Z</time>
      </trkpt>
      <trkpt lat="45.71228" lon="-1.03497">
        <ele>51.462421</ele>
        <time>2018-01-10T13:48:46.938Z</time>
      </trkpt>
      <trkpt lat="45.71258" lon="-1.03481">
        <ele>49.948418</ele>
        <time>2018-01-10T13:48:53.013Z</time>
      </trkpt>
      <trkpt lat="45.71291" lon="-1.03466">
        <ele>48.316853</ele>
        <time>2018-01-10T13:48:58.784Z</time>
      </trkpt>
      <trkpt lat="45.71326" lon="-1.03451">
        <ele>47.120441</ele>
        <time>2018-01-10T13:49:04.788Z</time>
      </trkpt>
      <trkpt lat="45.71357" lon="-1.03437">
        <ele>45.003395</ele>
        <time>2018-01-10T13:49:10.847Z</time>
      </trkpt>
      <trkpt lat="45.71389" lon="-1.0343">
        <ele>48.627132</ele>
        <time>2018-01-10T13:49:16.789Z</time>
      </trkpt>
      <trkpt lat="45.71415" lon="-1.03434">
        <ele>49.089077</ele>
        <time>2018-01-10T13:49:22.793Z</time>
      </trkpt>
      <trkpt lat="45.71439" lon="-1.03449">
        <ele>42.695202</ele>
        <time>2018-01-10T13:49:28.745Z</time>
      </trkpt>
      <trkpt lat="45.71462" lon="-1.03474">
        <ele>40.761456</ele>
        <time>2018-01-10T13:49:34.795Z</time>
      </trkpt>
      <trkpt lat="45.71484" lon="-1.03503">
        <ele>41.664158</ele>
        <time>2018-01-10T13:49:40.796Z</time>
      </trkpt>
      <trkpt lat="45.71501" lon="-1.03525">
        <ele>43.207977</ele>
        <time>2018-01-10T13:49:45.865Z</time>
      </trkpt>
      <trkpt lat="45.71524" lon="-1.03554">
        <ele>48.050774</ele>
        <time>2018-01-10T13:49:51.866Z</time>
      </trkpt>
      <trkpt lat="45.71545" lon="-1.03584">
        <ele>49.977745</ele>
        <time>2018-01-10T13:49:57.800Z</time>
      </trkpt>
      <trkpt lat="45.7157" lon="-1.03616">
        <ele>50.49226</ele>
        <time>2018-01-10T13:50:04.836Z</time>
      </trkpt>
      <trkpt lat="45.71593" lon="-1.03648">
        <ele>49.588818</ele>
        <time>2018-01-10T13:50:11.804Z</time>
      </trkpt>
      <trkpt lat="45.71619" lon="-1.03686">
        <ele>48.261448</ele>
        <time>2018-01-10T13:50:19.807Z</time>
      </trkpt>
      <trkpt lat="45.71634" lon="-1.03724">
        <ele>45.858986</ele>
        <time>2018-01-10T13:50:25.986Z</time>
      </trkpt>
      <trkpt lat="45.71644" lon="-1.03762">
        <ele>45.698269</ele>
        <time>2018-01-10T13:50:31.808Z</time>
      </trkpt>
      <trkpt lat="45.71656" lon="-1.03802">
        <ele>46.386726</ele>
        <time>2018-01-10T13:50:37.817Z</time>
      </trkpt>
      <trkpt lat="45.7167" lon="-1.03844">
        <ele>48.678154</ele>
        <time>2018-01-10T13:50:43.814Z</time>
      </trkpt>
      <trkpt lat="45.71692" lon="-1.03863">
        <ele>49.363888</ele>
        <time>2018-01-10T13:50:49.816Z</time>
      </trkpt>
      <trkpt lat="45.71724" lon="-1.0388">
        <ele>47.642059</ele>
        <time>2018-01-10T13:50:56.911Z</time>
      </trkpt>
      <trkpt lat="45.71757" lon="-1.03893">
        <ele>46.303646</ele>
        <time>2018-01-10T13:51:02.780Z</time>
      </trkpt>
      <trkpt lat="45.71785" lon="-1.03907">
        <ele>46.638878</ele>
        <time>2018-01-10T13:51:08.761Z</time>
      </trkpt>
      <trkpt lat="45.71815" lon="-1.03923">
        <ele>51.108646</ele>
        <time>2018-01-10T13:51:14.743Z</time>
      </trkpt>
      <trkpt lat="45.71845" lon="-1.03935">
        <ele>52.728508</ele>
        <time>2018-01-10T13:51:20.764Z</time>
      </trkpt>
      <trkpt lat="45.71873" lon="-1.03947">
        <ele>51.123283</ele>
        <time>2018-01-10T13:51:26.758Z</time>
      </trkpt>
      <trkpt lat="45.71903" lon="-1.03961">
        <ele>47.628742</ele>
        <time>2018-01-10T13:51:32.730Z</time>
      </trkpt>
      <trkpt lat="45.7193" lon="-1.03972">
        <ele>49.172161</ele>
        <time>2018-01-10T13:51:38.742Z</time>
      </trkpt>
      <trkpt lat="45.71936" lon="-1.03982">
        <ele>49.644875</ele>
        <time>2018-01-10T13:51:54.745Z</time>
      </trkpt>
      <trkpt lat="45.71933" lon="-1.03997">
        <ele>50.020679</ele>
        <time>2018-01-10T13:51:59.754Z</time>
      </trkpt>
      <trkpt lat="45.71928" lon="-1.04027">
        <ele>50.387779</ele>
        <time>2018-01-10T13:52:08.763Z</time>
      </trkpt>
      <trkpt lat="45.71945" lon="-1.04041">
        <ele>49.303429</ele>
        <time>2018-01-10T13:52:15.783Z</time>
      </trkpt>
      <trkpt lat="45.71966" lon="-1.04053">
        <ele>50.195179</ele>
        <time>2018-01-10T13:52:21.739Z</time>
      </trkpt>
      <trkpt lat="45.71987" lon="-1.04067">
        <ele>48.126122</ele>
        <time>2018-01-10T13:52:27.739Z</time>
      </trkpt>
      <trkpt lat="45.72009" lon="-1.04074">
        <ele>45.889557</ele>
        <time>2018-01-10T13:52:33.802Z</time>
      </trkpt>
      <trkpt lat="45.7203" lon="-1.04076">
        <ele>46.113346</ele>
        <time>2018-01-10T13:52:39.741Z</time>
      </trkpt>
      <trkpt lat="45.72051" lon="-1.04075">
        <ele>46.02375</ele>
        <time>2018-01-10T13:52:45.762Z</time>
      </trkpt>
      <trkpt lat="45.72072" lon="-1.04084">
        <ele>45.91946</ele>
        <time>2018-01-10T13:52:51.962Z</time>
      </trkpt>
      <trkpt lat="45.7209" lon="-1.04099">
        <ele>45.825607</ele>
        <time>2018-01-10T13:52:57.758Z</time>
      </trkpt>
      <trkpt lat="45.72109" lon="-1.04112">
        <ele>46.151653</ele>
        <time>2018-01-10T13:53:03.766Z</time>
      </trkpt>
      <trkpt lat="45.72127" lon="-1.04128">
        <ele>46.962391</ele>
        <time>2018-01-10T13:53:09.765Z</time>
      </trkpt>
      <trkpt lat="45.72148" lon="-1.04138">
        <ele>46.606693</ele>
        <time>2018-01-10T13:53:15.766Z</time>
      </trkpt>
      <trkpt lat="45.7217" lon="-1.04131">
        <ele>46.935745</ele>
        <time>2018-01-10T13:53:22.756Z</time>
      </trkpt>
      <trkpt lat="45.72189" lon="-1.04123">
        <ele>46.846687</ele>
        <time>2018-01-10T13:53:28.760Z</time>
      </trkpt>
      <trkpt lat="45.72209" lon="-1.04119">
        <ele>47.004436</ele>
        <time>2018-01-10T13:53:34.765Z</time>
      </trkpt>
      <trkpt lat="45.72229" lon="-1.04118">
        <ele>46.833511</ele>
        <time>2018-01-10T13:53:40.785Z</time>
      </trkpt>
      <trkpt lat="45.72248" lon="-1.04115">
        <ele>46.99826</ele>
        <time>2018-01-10T13:53:46.766Z</time>
      </trkpt>
      <trkpt lat="45.72268" lon="-1.04109">
        <ele>47.343826</ele>
        <time>2018-01-10T13:53:54.764Z</time>
      </trkpt>
      <trkpt lat="45.7229" lon="-1.04106">
        <ele>47.430443</ele>
        <time>2018-01-10T13:54:03.765Z</time>
      </trkpt>
      <trkpt lat="45.72299" lon="-1.04098">
        <ele>47.267181</ele>
        <time>2018-01-10T13:54:09.817Z</time>
      </trkpt>
      <trkpt lat="45.72302" lon="-1.04069">
        <ele>47.27879</ele>
        <time>2018-01-10T13:54:17.838Z</time>
      </trkpt>
      <trkpt lat="45.72314" lon="-1.04048">
        <ele>47.589622</ele>
        <time>2018-01-10T13:54:25.764Z</time>
      </trkpt>
      <trkpt lat="45.72335" lon="-1.04055">
        <ele>47.417114</ele>
        <time>2018-01-10T13:54:33.760Z</time>
      </trkpt>
      <trkpt lat="45.72356" lon="-1.04054">
        <ele>47.670998</ele>
        <time>2018-01-10T13:54:41.763Z</time>
      </trkpt>
      <trkpt lat="45.72374" lon="-1.04042">
        <ele>47.597458</ele>
        <time>2018-01-10T13:54:48.734Z</time>
      </trkpt>
      <trkpt lat="45.72384" lon="-1.04016">
        <ele>47.641693</ele>
        <time>2018-01-10T13:54:55.764Z</time>
      </trkpt>
      <trkpt lat="45.72387" lon="-1.04001">
        <ele>47.344707</ele>
        <time>2018-01-10T13:55:00.764Z</time>
      </trkpt>
      <trkpt lat="45.72397" lon="-1.0398">
        <ele>47.192245</ele>
        <time>2018-01-10T13:55:09.763Z</time>
      </trkpt>
      <trkpt lat="45.72406" lon="-1.03987">
        <ele>47.213348</ele>
        <time>2018-01-10T13:55:14.764Z</time>
      </trkpt>
      <trkpt lat="45.72408" lon="-1.04012">
        <ele>47.40126</ele>
        <time>2018-01-10T13:55:22.764Z</time>
      </trkpt>
      <trkpt lat="45.72419" lon="-1.04015">
        <ele>47.360397</ele>
        <time>2018-01-10T13:55:28.733Z</time>
      </trkpt>
      <trkpt lat="45.72438" lon="-1.04003">
        <ele>47.632004</ele>
        <time>2018-01-10T13:55:35.743Z</time>
      </trkpt>
      <trkpt lat="45.72459" lon="-1.03992">
        <ele>48.042068</ele>
        <time>2018-01-10T13:55:43.906Z</time>
      </trkpt>
      <trkpt lat="45.72478" lon="-1.03987">
        <ele>47.707241</ele>
        <time>2018-01-10T13:55:49.766Z</time>
      </trkpt>
      <trkpt lat="45.72497" lon="-1.03979">
        <ele>47.144714</ele>
        <time>2018-01-10T13:55:57.733Z</time>
      </trkpt>
      <trkpt lat="45.72506" lon="-1.03979">
        <ele>46.797234</ele>
        <time>2018-01-10T13:56:02.745Z</time>
      </trkpt>
      <trkpt lat="45.72516" lon="-1.03976">
        <ele>46.62244</ele>
        <time>2018-01-10T13:56:07.766Z</time>
      </trkpt>
      <trkpt lat="45.72533" lon="-1.03961">
        <ele>46.354515</ele>
        <time>2018-01-10T13:56:15.763Z</time>
      </trkpt>
      <trkpt lat="45.72547" lon="-1.0394">
        <ele>46.220661</ele>
        <time>2018-01-10T13:56:22.763Z</time>
      </trkpt>
      <trkpt lat="45.72556" lon="-1.0391">
        <ele>45.940243</ele>
        <time>2018-01-10T13:56:30.771Z</time>
      </trkpt>
      <trkpt lat="45.72565" lon="-1.03884">
        <ele>46.269936</ele>
        <time>2018-01-10T13:56:37.762Z</time>
      </trkpt>
      <trkpt lat="45.72573" lon="-1.03857">
        <ele>46.668041</ele>
        <time>2018-01-10T13:56:44.845Z</time>
      </trkpt>
      <trkpt lat="45.72577" lon="-1.03829">
        <ele>47.264389</ele>
        <time>2018-01-10T13:56:51.770Z</time>
      </trkpt>
      <trkpt lat="45.72571" lon="-1.03803">
        <ele>47.238213</ele>
        <time>2018-01-10T13:56:58.728Z</time>
      </trkpt>
      <trkpt lat="45.72557" lon="-1.03779">
        <ele>47.596844</ele>
        <time>2018-01-10T13:57:05.729Z</time>
      </trkpt>
      <trkpt lat="45.72546" lon="-1.03755">
        <ele>47.535088</ele>
        <time>2018-01-10T13:57:12.759Z</time>
      </trkpt>
      <trkpt lat="45.72532" lon="-1.03732">
        <ele>47.882561</ele>
        <time>2018-01-10T13:57:20.759Z</time>
      </trkpt>
      <trkpt lat="45.72518" lon="-1.03706">
        <ele>47.606972</ele>
        <time>2018-01-10T13:57:28.772Z</time>
      </trkpt>
      <trkpt lat="45.72503" lon="-1.03683">
        <ele>47.42989</ele>
        <time>2018-01-10T13:57:36.759Z</time>
      </trkpt>
      <trkpt lat="45.72488" lon="-1.03664">
        <ele>47.242233</ele>
        <time>2018-01-10T13:57:43.798Z</time>
      </trkpt>
      <trkpt lat="45.72472" lon="-1.03643">
        <ele>46.859108</ele>
        <time>2018-01-10T13:57:50.757Z</time>
      </trkpt>
      <trkpt lat="45.72457" lon="-1.03624">
        <ele>46.818348</ele>
        <time>2018-01-10T13:57:58.757Z</time>
      </trkpt>
      <trkpt lat="45.72437" lon="-1.03595">
        <ele>50.937191</ele>
        <time>2018-01-10T13:59:17.740Z</time>
      </trkpt>
      <trkpt lat="45.72428" lon="-1.03585">
        <ele>50.712109</ele>
        <time>2018-01-10T13:59:22.740Z</time>
      </trkpt>
      <trkpt lat="45.72412" lon="-1.03569">
        <ele>49.852482</ele>
        <time>2018-01-10T13:59:30.739Z</time>
      </trkpt>
      <trkpt lat="45.72396" lon="-1.03556">
        <ele>49.076221</ele>
        <time>2018-01-10T13:59:38.739Z</time>
      </trkpt>
      <trkpt lat="45.72379" lon="-1.0354">
        <ele>48.782948</ele>
        <time>2018-01-10T13:59:46.739Z</time>
      </trkpt>
      <trkpt lat="45.7236" lon="-1.03523">
        <ele>48.668243</ele>
        <time>2018-01-10T13:59:54.741Z</time>
      </trkpt>
      <trkpt lat="45.72346" lon="-1.03504">
        <ele>48.002483</ele>
        <time>2018-01-10T14:00:00.741Z</time>
      </trkpt>
      <trkpt lat="45.72333" lon="-1.03482">
        <ele>47.707882</ele>
        <time>2018-01-10T14:00:07.756Z</time>
      </trkpt>
      <trkpt lat="45.72319" lon="-1.03461">
        <ele>48.059109</ele>
        <time>2018-01-10T14:00:15.801Z</time>
      </trkpt>
      <trkpt lat="45.72303" lon="-1.03442">
        <ele>48.002056</ele>
        <time>2018-01-10T14:00:26.737Z</time>
      </trkpt>
      <trkpt lat="45.72288" lon="-1.03426">
        <ele>47.527889</ele>
        <time>2018-01-10T14:00:33.739Z</time>
      </trkpt>
      <trkpt lat="45.72271" lon="-1.03408">
        <ele>47.18224</ele>
        <time>2018-01-10T14:00:40.742Z</time>
      </trkpt>
      <trkpt lat="45.72256" lon="-1.03389">
        <ele>47.372414</ele>
        <time>2018-01-10T14:00:49.739Z</time>
      </trkpt>
      <trkpt lat="45.7224" lon="-1.03367">
        <ele>48.311039</ele>
        <time>2018-01-10T14:00:57.884Z</time>
      </trkpt>
      <trkpt lat="45.72225" lon="-1.03346">
        <ele>48.515274</ele>
        <time>2018-01-10T14:01:04.758Z</time>
      </trkpt>
      <trkpt lat="45.72211" lon="-1.03326">
        <ele>48.391052</ele>
        <time>2018-01-10T14:01:11.741Z</time>
      </trkpt>
      <trkpt lat="45.72192" lon="-1.03307">
        <ele>48.548626</ele>
        <time>2018-01-10T14:01:19.741Z</time>
      </trkpt>
      <trkpt lat="45.72174" lon="-1.03289">
        <ele>48.519367</ele>
        <time>2018-01-10T14:01:27.739Z</time>
      </trkpt>
      <trkpt lat="45.72157" lon="-1.03276">
        <ele>48.445</ele>
        <time>2018-01-10T14:01:35.901Z</time>
      </trkpt>
      <trkpt lat="45.7214" lon="-1.03263">
        <ele>48.272881</ele>
        <time>2018-01-10T14:01:41.739Z</time>
      </trkpt>
      <trkpt lat="45.72122" lon="-1.0325">
        <ele>47.757614</ele>
        <time>2018-01-10T14:01:47.743Z</time>
      </trkpt>
      <trkpt lat="45.72102" lon="-1.03242">
        <ele>47.090942</ele>
        <time>2018-01-10T14:01:53.916Z</time>
      </trkpt>
      <trkpt lat="45.72084" lon="-1.03227">
        <ele>46.46365</ele>
        <time>2018-01-10T14:01:59.743Z</time>
      </trkpt>
      <trkpt lat="45.72073" lon="-1.03205">
        <ele>46.122139</ele>
        <time>2018-01-10T14:02:06.739Z</time>
      </trkpt>
      <trkpt lat="45.7208" lon="-1.03181">
        <ele>45.947659</ele>
        <time>2018-01-10T14:02:12.756Z</time>
      </trkpt>
      <trkpt lat="45.72087" lon="-1.03152">
        <ele>46.104664</ele>
        <time>2018-01-10T14:02:20.748Z</time>
      </trkpt>
      <trkpt lat="45.72081" lon="-1.03122">
        <ele>46.134094</ele>
        <time>2018-01-10T14:02:28.929Z</time>
      </trkpt>
      <trkpt lat="45.72072" lon="-1.03095">
        <ele>46.495914</ele>
        <time>2018-01-10T14:02:36.752Z</time>
      </trkpt>
      <trkpt lat="45.72064" lon="-1.03068">
        <ele>47.128616</ele>
        <time>2018-01-10T14:02:43.750Z</time>
      </trkpt>
      <trkpt lat="45.72054" lon="-1.0304">
        <ele>47.315178</ele>
        <time>2018-01-10T14:02:51.742Z</time>
      </trkpt>
      <trkpt lat="45.72043" lon="-1.03018">
        <ele>47.387455</ele>
        <time>2018-01-10T14:02:58.758Z</time>
      </trkpt>
      <trkpt lat="45.72031" lon="-1.02993">
        <ele>47.686466</ele>
        <time>2018-01-10T14:03:06.747Z</time>
      </trkpt>
      <trkpt lat="45.72012" lon="-1.02981">
        <ele>47.925514</ele>
        <time>2018-01-10T14:03:14.789Z</time>
      </trkpt>
      <trkpt lat="45.71998" lon="-1.02958">
        <ele>48.0172</ele>
        <time>2018-01-10T14:03:22.978Z</time>
      </trkpt>
      <trkpt lat="45.71983" lon="-1.02938">
        <ele>48.597694</ele>
        <time>2018-01-10T14:03:29.742Z</time>
      </trkpt>
      <trkpt lat="45.71968" lon="-1.02918">
        <ele>48.541378</ele>
        <time>2018-01-10T14:03:37.752Z</time>
      </trkpt>
      <trkpt lat="45.71955" lon="-1.02896">
        <ele>47.9977</ele>
        <time>2018-01-10T14:03:46.775Z</time>
      </trkpt>
      <trkpt lat="45.71941" lon="-1.02878">
        <ele>47.64357</ele>
        <time>2018-01-10T14:03:55.738Z</time>
      </trkpt>
      <trkpt lat="45.71932" lon="-1.02868">
        <ele>47.411751</ele>
        <time>2018-01-10T14:04:00.744Z</time>
      </trkpt>
      <trkpt lat="45.71916" lon="-1.02852">
        <ele>47.670879</ele>
        <time>2018-01-10T14:04:09.740Z</time>
      </trkpt>
      <trkpt lat="45.719" lon="-1.02833">
        <ele>47.51688</ele>
        <time>2018-01-10T14:04:18.737Z</time>
      </trkpt>
      <trkpt lat="45.71893" lon="-1.02824">
        <ele>47.657364</ele>
        <time>2018-01-10T14:04:23.749Z</time>
      </trkpt>
      <trkpt lat="45.71877" lon="-1.02806">
        <ele>48.224033</ele>
        <time>2018-01-10T14:04:31.739Z</time>
      </trkpt>
      <trkpt lat="45.71862" lon="-1.02784">
        <ele>48.273624</ele>
        <time>2018-01-10T14:04:39.739Z</time>
      </trkpt>
      <trkpt lat="45.71851" lon="-1.02759">
        <ele>48.273979</ele>
        <time>2018-01-10T14:04:46.888Z</time>
      </trkpt>
      <trkpt lat="45.71843" lon="-1.0273">
        <ele>48.751316</ele>
        <time>2018-01-10T14:04:54.963Z</time>
      </trkpt>
      <trkpt lat="45.71824" lon="-1.02721">
        <ele>49.06982</ele>
        <time>2018-01-10T14:05:01.739Z</time>
      </trkpt>
      <trkpt lat="45.71805" lon="-1.02729">
        <ele>49.287018</ele>
        <time>2018-01-10T14:05:07.736Z</time>
      </trkpt>
      <trkpt lat="45.71785" lon="-1.02738">
        <ele>49.560612</ele>
        <time>2018-01-10T14:05:14.730Z</time>
      </trkpt>
      <trkpt lat="45.71765" lon="-1.02752">
        <ele>50.106094</ele>
        <time>2018-01-10T14:05:21.742Z</time>
      </trkpt>
      <trkpt lat="45.71749" lon="-1.02764">
        <ele>50.654022</ele>
        <time>2018-01-10T14:05:28.739Z</time>
      </trkpt>
      <trkpt lat="45.71739" lon="-1.02771">
        <ele>51.353603</ele>
        <time>2018-01-10T14:05:34.794Z</time>
      </trkpt>
      <trkpt lat="45.71721" lon="-1.02776">
        <ele>51.842491</ele>
        <time>2018-01-10T14:05:42.828Z</time>
      </trkpt>
      <trkpt lat="45.717" lon="-1.0278">
        <ele>51.439308</ele>
        <time>2018-01-10T14:05:50.754Z</time>
      </trkpt>
      <trkpt lat="45.7168" lon="-1.02784">
        <ele>50.009583</ele>
        <time>2018-01-10T14:05:59.742Z</time>
      </trkpt>
      <trkpt lat="45.71667" lon="-1.02804">
        <ele>49.844109</ele>
        <time>2018-01-10T14:06:06.803Z</time>
      </trkpt>
      <trkpt lat="45.7166" lon="-1.02831">
        <ele>50.457954</ele>
        <time>2018-01-10T14:06:14.760Z</time>
      </trkpt>
      <trkpt lat="45.71653" lon="-1.0286">
        <ele>50.865917</ele>
        <time>2018-01-10T14:06:22.746Z</time>
      </trkpt>
      <trkpt lat="45.71641" lon="-1.02882">
        <ele>50.610958</ele>
        <time>2018-01-10T14:06:29.739Z</time>
      </trkpt>
      <trkpt lat="45.71627" lon="-1.029">
        <ele>50.441242</ele>
        <time>2018-01-10T14:06:35.740Z</time>
      </trkpt>
      <trkpt lat="45.71615" lon="-1.02923">
        <ele>50.125061</ele>
        <time>2018-01-10T14:06:42.745Z</time>
      </trkpt>
      <trkpt lat="45.71605" lon="-1.0295">
        <ele>49.812759</ele>
        <time>2018-01-10T14:06:50.740Z</time>
      </trkpt>
      <trkpt lat="45.71601" lon="-1.02982">
        <ele>49.552502</ele>
        <time>2018-01-10T14:06:58.739Z</time>
      </trkpt>
      <trkpt lat="45.71599" lon="-1.02997">
        <ele>49.384895</ele>
        <time>2018-01-10T14:07:03.740Z</time>
      </trkpt>
      <trkpt lat="45.71587" lon="-1.03022">
        <ele>49.348999</ele>
        <time>2018-01-10T14:07:11.739Z</time>
      </trkpt>
      <trkpt lat="45.71576" lon="-1.03047">
        <ele>48.982368</ele>
        <time>2018-01-10T14:07:17.740Z</time>
      </trkpt>
      <trkpt lat="45.71566" lon="-1.03073">
        <ele>49.234669</ele>
        <time>2018-01-10T14:07:24.752Z</time>
      </trkpt>
      <trkpt lat="45.71558" lon="-1.031">
        <ele>49.319603</ele>
        <time>2018-01-10T14:07:30.742Z</time>
      </trkpt>
      <trkpt lat="45.71554" lon="-1.03129">
        <ele>48.745346</ele>
        <time>2018-01-10T14:07:37.738Z</time>
      </trkpt>
      <trkpt lat="45.71552" lon="-1.03161">
        <ele>48.30415</ele>
        <time>2018-01-10T14:07:43.739Z</time>
      </trkpt>
      <trkpt lat="45.7156" lon="-1.0319">
        <ele>48.050045</ele>
        <time>2018-01-10T14:07:50.739Z</time>
      </trkpt>
      <trkpt lat="45.71556" lon="-1.03218">
        <ele>47.78236</ele>
        <time>2018-01-10T14:07:57.729Z</time>
      </trkpt>
      <trkpt lat="45.71547" lon="-1.03241">
        <ele>47.932892</ele>
        <time>2018-01-10T14:08:03.740Z</time>
      </trkpt>
      <trkpt lat="45.71525" lon="-1.03246">
        <ele>48.413124</ele>
        <time>2018-01-10T14:08:10.743Z</time>
      </trkpt>
      <trkpt lat="45.71508" lon="-1.0326">
        <ele>48.797012</ele>
        <time>2018-01-10T14:08:16.740Z</time>
      </trkpt>
      <trkpt lat="45.71491" lon="-1.03282">
        <ele>49.096287</ele>
        <time>2018-01-10T14:08:23.741Z</time>
      </trkpt>
      <trkpt lat="45.71477" lon="-1.033">
        <ele>49.428841</ele>
        <time>2018-01-10T14:08:29.740Z</time>
      </trkpt>
      <trkpt lat="45.71462" lon="-1.03318">
        <ele>49.799381</ele>
        <time>2018-01-10T14:08:38.740Z</time>
      </trkpt>
      <trkpt lat="45.71455" lon="-1.03327">
        <ele>49.343712</ele>
        <time>2018-01-10T14:08:47.738Z</time>
      </trkpt>
      <trkpt lat="45.71436" lon="-1.03346">
        <ele>48.792259</ele>
        <time>2018-01-10T14:08:55.738Z</time>
      </trkpt>
      <trkpt lat="45.71421" lon="-1.03362">
        <ele>48.344036</ele>
        <time>2018-01-10T14:09:01.743Z</time>
      </trkpt>
      <trkpt lat="45.71411" lon="-1.0339">
        <ele>48.428642</ele>
        <time>2018-01-10T14:09:07.745Z</time>
      </trkpt>
      <trkpt lat="45.71398" lon="-1.03417">
        <ele>48.303955</ele>
        <time>2018-01-10T14:09:13.739Z</time>
      </trkpt>
      <trkpt lat="45.71381" lon="-1.03433">
        <ele>48.116085</ele>
        <time>2018-01-10T14:09:18.741Z</time>
      </trkpt>
      <trkpt lat="45.71356" lon="-1.03443">
        <ele>46.341209</ele>
        <time>2018-01-10T14:09:24.742Z</time>
      </trkpt>
      <trkpt lat="45.71337" lon="-1.03452">
        <ele>45.446728</ele>
        <time>2018-01-10T14:09:30.742Z</time>
      </trkpt>
      <trkpt lat="45.71317" lon="-1.0346">
        <ele>45.685436</ele>
        <time>2018-01-10T14:09:36.739Z</time>
      </trkpt>
      <trkpt lat="45.71297" lon="-1.03466">
        <ele>46.196312</ele>
        <time>2018-01-10T14:09:42.737Z</time>
      </trkpt>
      <trkpt lat="45.71276" lon="-1.03472">
        <ele>46.985031</ele>
        <time>2018-01-10T14:09:48.740Z</time>
      </trkpt>
      <trkpt lat="45.71255" lon="-1.03484">
        <ele>47.912743</ele>
        <time>2018-01-10T14:09:54.743Z</time>
      </trkpt>
      <trkpt lat="45.71237" lon="-1.03492">
        <ele>48.337711</ele>
        <time>2018-01-10T14:10:00.738Z</time>
      </trkpt>
      <trkpt lat="45.71216" lon="-1.03503">
        <ele>48.784924</ele>
        <time>2018-01-10T14:10:07.737Z</time>
      </trkpt>
      <trkpt lat="45.71199" lon="-1.03512">
        <ele>49.506088</ele>
        <time>2018-01-10T14:10:13.740Z</time>
      </trkpt>
      <trkpt lat="45.71179" lon="-1.03522">
        <ele>50.147533</ele>
        <time>2018-01-10T14:10:19.766Z</time>
      </trkpt>
      <trkpt lat="45.7116" lon="-1.03535">
        <ele>50.304977</ele>
        <time>2018-01-10T14:10:25.741Z</time>
      </trkpt>
      <trkpt lat="45.71141" lon="-1.0354">
        <ele>50.048203</ele>
        <time>2018-01-10T14:10:31.874Z</time>
      </trkpt>
      <trkpt lat="45.71123" lon="-1.0355">
        <ele>49.806656</ele>
        <time>2018-01-10T14:10:37.737Z</time>
      </trkpt>
      <trkpt lat="45.71105" lon="-1.03566">
        <ele>49.675438</ele>
        <time>2018-01-10T14:10:43.739Z</time>
      </trkpt>
      <trkpt lat="45.71086" lon="-1.03573">
        <ele>49.284393</ele>
        <time>2018-01-10T14:10:49.729Z</time>
      </trkpt>
      <trkpt lat="45.71067" lon="-1.03561">
        <ele>49.089149</ele>
        <time>2018-01-10T14:10:56.739Z</time>
      </trkpt>
      <trkpt lat="45.71055" lon="-1.0354">
        <ele>49.501049</ele>
        <time>2018-01-10T14:11:02.733Z</time>
      </trkpt>
      <trkpt lat="45.71045" lon="-1.03514">
        <ele>49.844383</ele>
        <time>2018-01-10T14:11:08.738Z</time>
      </trkpt>
      <trkpt lat="45.71036" lon="-1.03485">
        <ele>49.694157</ele>
        <time>2018-01-10T14:11:14.739Z</time>
      </trkpt>
      <trkpt lat="45.71024" lon="-1.03457">
        <ele>50.067299</ele>
        <time>2018-01-10T14:11:20.739Z</time>
      </trkpt>
      <trkpt lat="45.71004" lon="-1.03462">
        <ele>51.1362</ele>
        <time>2018-01-10T14:11:27.736Z</time>
      </trkpt>
      <trkpt lat="45.70982" lon="-1.03469">
        <ele>51.949093</ele>
        <time>2018-01-10T14:11:33.742Z</time>
      </trkpt>
      <trkpt lat="45.70965" lon="-1.03486">
        <ele>52.788387</ele>
        <time>2018-01-10T14:11:40.740Z</time>
      </trkpt>
      <trkpt lat="45.70954" lon="-1.03513">
        <ele>53.074028</ele>
        <time>2018-01-10T14:11:47.744Z</time>
      </trkpt>
      <trkpt lat="45.7095" lon="-1.03543">
        <ele>53.244804</ele>
        <time>2018-01-10T14:11:53.742Z</time>
      </trkpt>
      <trkpt lat="45.7095" lon="-1.03575">
        <ele>53.374454</ele>
        <time>2018-01-10T14:11:59.747Z</time>
      </trkpt>
      <trkpt lat="45.70951" lon="-1.03605">
        <ele>52.492321</ele>
        <time>2018-01-10T14:12:05.739Z</time>
      </trkpt>
      <trkpt lat="45.7095" lon="-1.03634">
        <ele>52.45034</ele>
        <time>2018-01-10T14:12:11.745Z</time>
      </trkpt>
      <trkpt lat="45.70944" lon="-1.03663">
        <ele>51.438225</ele>
        <time>2018-01-10T14:12:17.739Z</time>
      </trkpt>
      <trkpt lat="45.70936" lon="-1.03693">
        <ele>43.482292</ele>
        <time>2018-01-10T14:12:23.742Z</time>
      </trkpt>
      <trkpt lat="45.70924" lon="-1.03724">
        <ele>43.555996</ele>
        <time>2018-01-10T14:12:29.736Z</time>
      </trkpt>
      <trkpt lat="45.70911" lon="-1.03756">
        <ele>44.382565</ele>
        <time>2018-01-10T14:12:35.865Z</time>
      </trkpt>
      <trkpt lat="45.70896" lon="-1.03798">
        <ele>37.971569</ele>
        <time>2018-01-10T14:12:43.732Z</time>
      </trkpt>
      <trkpt lat="45.70882" lon="-1.0383">
        <ele>36.28072</ele>
        <time>2018-01-10T14:12:49.790Z</time>
      </trkpt>
      <trkpt lat="45.70868" lon="-1.03874">
        <ele>37.201969</ele>
        <time>2018-01-10T14:12:57.737Z</time>
      </trkpt>
      <trkpt lat="45.70857" lon="-1.03907">
        <ele>36.304649</ele>
        <time>2018-01-10T14:13:03.736Z</time>
      </trkpt>
      <trkpt lat="45.70843" lon="-1.03947">
        <ele>36.416641</ele>
        <time>2018-01-10T14:13:10.766Z</time>
      </trkpt>
      <trkpt lat="45.70827" lon="-1.03987">
        <ele>37.618076</ele>
        <time>2018-01-10T14:13:17.729Z</time>
      </trkpt>
      <trkpt lat="45.70812" lon="-1.04029">
        <ele>37.387913</ele>
        <time>2018-01-10T14:13:24.739Z</time>
      </trkpt>
      <trkpt lat="45.708" lon="-1.04065">
        <ele>37.048328</ele>
        <time>2018-01-10T14:13:30.740Z</time>
      </trkpt>
      <trkpt lat="45.7079" lon="-1.04102">
        <ele>34.301399</ele>
        <time>2018-01-10T14:13:36.737Z</time>
      </trkpt>
      <trkpt lat="45.70787" lon="-1.04132">
        <ele>33.194962</ele>
        <time>2018-01-10T14:13:41.740Z</time>
      </trkpt>
      <trkpt lat="45.70792" lon="-1.04164">
        <ele>37.73262</ele>
        <time>2018-01-10T14:13:46.740Z</time>
      </trkpt>
      <trkpt lat="45.70797" lon="-1.04196">
        <ele>42.480701</ele>
        <time>2018-01-10T14:13:51.742Z</time>
      </trkpt>
      <trkpt lat="45.70808" lon="-1.04234">
        <ele>46.963749</ele>
        <time>2018-01-10T14:13:57.752Z</time>
      </trkpt>
      <trkpt lat="45.70819" lon="-1.04263">
        <ele>48.985733</ele>
        <time>2018-01-10T14:14:02.818Z</time>
      </trkpt>
      <trkpt lat="45.70831" lon="-1.04295">
        <ele>47.438461</ele>
        <time>2018-01-10T14:14:08.737Z</time>
      </trkpt>
      <trkpt lat="45.70842" lon="-1.04326">
        <ele>45.618809</ele>
        <time>2018-01-10T14:14:14.779Z</time>
      </trkpt>
      <trkpt lat="45.70859" lon="-1.04367">
        <ele>45.069801</ele>
        <time>2018-01-10T14:14:21.739Z</time>
      </trkpt>
      <trkpt lat="45.70876" lon="-1.04401">
        <ele>46.063847</ele>
        <time>2018-01-10T14:14:27.825Z</time>
      </trkpt>
      <trkpt lat="45.70892" lon="-1.04435">
        <ele>47.603043</ele>
        <time>2018-01-10T14:14:33.736Z</time>
      </trkpt>
      <trkpt lat="45.70906" lon="-1.04461">
        <ele>46.589752</ele>
        <time>2018-01-10T14:14:38.736Z</time>
      </trkpt>
      <trkpt lat="45.70919" lon="-1.04487">
        <ele>45.833824</ele>
        <time>2018-01-10T14:14:43.840Z</time>
      </trkpt>
      <trkpt lat="45.70937" lon="-1.0452">
        <ele>46.435932</ele>
        <time>2018-01-10T14:14:49.737Z</time>
      </trkpt>
      <trkpt lat="45.70958" lon="-1.04556">
        <ele>47.301521</ele>
        <time>2018-01-10T14:14:56.735Z</time>
      </trkpt>
      <trkpt lat="45.70978" lon="-1.0459">
        <ele>47.976337</ele>
        <time>2018-01-10T14:15:03.737Z</time>
      </trkpt>
      <trkpt lat="45.70995" lon="-1.04628">
        <ele>47.409367</ele>
        <time>2018-01-10T14:15:10.729Z</time>
      </trkpt>
      <trkpt lat="45.71009" lon="-1.04661">
        <ele>47.27969</ele>
        <time>2018-01-10T14:15:16.869Z</time>
      </trkpt>
      <trkpt lat="45.71024" lon="-1.04701">
        <ele>49.536667</ele>
        <time>2018-01-10T14:15:23.876Z</time>
      </trkpt>
      <trkpt lat="45.71034" lon="-1.04734">
        <ele>49.788559</ele>
        <time>2018-01-10T14:15:29.737Z</time>
      </trkpt>
      <trkpt lat="45.71043" lon="-1.04766">
        <ele>54.246899</ele>
        <time>2018-01-10T14:15:35.737Z</time>
      </trkpt>
      <trkpt lat="45.71052" lon="-1.04798">
        <ele>53.419449</ele>
        <time>2018-01-10T14:15:41.734Z</time>
      </trkpt>
      <trkpt lat="45.71058" lon="-1.04831">
        <ele>50.958626</ele>
        <time>2018-01-10T14:15:47.739Z</time>
      </trkpt>
      <trkpt lat="45.71058" lon="-1.04866">
        <ele>48.606037</ele>
        <time>2018-01-10T14:15:53.735Z</time>
      </trkpt>
      <trkpt lat="45.71051" lon="-1.04894">
        <ele>48.06683</ele>
        <time>2018-01-10T14:15:59.737Z</time>
      </trkpt>
      <trkpt lat="45.71037" lon="-1.04921">
        <ele>47.488365</ele>
        <time>2018-01-10T14:16:05.732Z</time>
      </trkpt>
      <trkpt lat="45.71022" lon="-1.04945">
        <ele>48.069042</ele>
        <time>2018-01-10T14:16:11.741Z</time>
      </trkpt>
      <trkpt lat="45.71011" lon="-1.0497">
        <ele>48.285564</ele>
        <time>2018-01-10T14:16:17.744Z</time>
      </trkpt>
      <trkpt lat="45.70994" lon="-1.04989">
        <ele>47.80497</ele>
        <time>2018-01-10T14:16:25.813Z</time>
      </trkpt>
      <trkpt lat="45.70978" lon="-1.05011">
        <ele>46.920815</ele>
        <time>2018-01-10T14:16:31.776Z</time>
      </trkpt>
      <trkpt lat="45.70962" lon="-1.05025">
        <ele>45.864986</ele>
        <time>2018-01-10T14:16:39.745Z</time>
      </trkpt>
      <trkpt lat="45.70953" lon="-1.05048">
        <ele>45.910389</ele>
        <time>2018-01-10T14:16:46.746Z</time>
      </trkpt>
      <trkpt lat="45.70945" lon="-1.05072">
        <ele>46.193893</ele>
        <time>2018-01-10T14:16:52.751Z</time>
      </trkpt>
      <trkpt lat="45.70932" lon="-1.05099">
        <ele>47.48967</ele>
        <time>2018-01-10T14:17:01.749Z</time>
      </trkpt>
      <trkpt lat="45.70917" lon="-1.05122">
        <ele>48.698334</ele>
        <time>2018-01-10T14:17:09.737Z</time>
      </trkpt>
      <trkpt lat="45.70902" lon="-1.05145">
        <ele>50.721375</ele>
        <time>2018-01-10T14:17:17.744Z</time>
      </trkpt>
      <trkpt lat="45.70886" lon="-1.05164">
        <ele>52.424141</ele>
        <time>2018-01-10T14:17:24.745Z</time>
      </trkpt>
      <trkpt lat="45.70874" lon="-1.05185">
        <ele>54.176723</ele>
        <time>2018-01-10T14:17:30.746Z</time>
      </trkpt>
      <trkpt lat="45.70859" lon="-1.05209">
        <ele>64.415421</ele>
        <time>2018-01-10T14:17:36.918Z</time>
      </trkpt>
      <trkpt lat="45.70846" lon="-1.05232">
        <ele>72.179131</ele>
        <time>2018-01-10T14:17:42.748Z</time>
      </trkpt>
      <trkpt lat="45.70825" lon="-1.05248">
        <ele>70.739761</ele>
        <time>2018-01-10T14:17:48.823Z</time>
      </trkpt>
      <trkpt lat="45.70804" lon="-1.05263">
        <ele>69.382484</ele>
        <time>2018-01-10T14:17:54.772Z</time>
      </trkpt>
      <trkpt lat="45.70781" lon="-1.05277">
        <ele>68.773727</ele>
        <time>2018-01-10T14:18:00.978Z</time>
      </trkpt>
      <trkpt lat="45.70759" lon="-1.05288">
        <ele>68.214317</ele>
        <time>2018-01-10T14:18:06.752Z</time>
      </trkpt>
      <trkpt lat="45.70726" lon="-1.05297">
        <ele>71.445679</ele>
        <time>2018-01-10T14:18:13.751Z</time>
      </trkpt>
      <trkpt lat="45.70704" lon="-1.0531">
        <ele>73.080742</ele>
        <time>2018-01-10T14:18:19.946Z</time>
      </trkpt>
      <trkpt lat="45.70678" lon="-1.05331">
        <ele>71.932747</ele>
        <time>2018-01-10T14:18:25.748Z</time>
      </trkpt>
      <trkpt lat="45.70658" lon="-1.0535">
        <ele>65.393692</ele>
        <time>2018-01-10T14:18:31.760Z</time>
      </trkpt>
      <trkpt lat="45.7064" lon="-1.05372">
        <ele>61.627979</ele>
        <time>2018-01-10T14:18:37.761Z</time>
      </trkpt>
      <trkpt lat="45.70613" lon="-1.05381">
        <ele>60.480518</ele>
        <time>2018-01-10T14:18:43.763Z</time>
      </trkpt>
      <trkpt lat="45.70582" lon="-1.0539">
        <ele>61.54541</ele>
        <time>2018-01-10T14:18:51.743Z</time>
      </trkpt>
      <trkpt lat="45.70564" lon="-1.0541">
        <ele>62.677399</ele>
        <time>2018-01-10T14:18:57.740Z</time>
      </trkpt>
      <trkpt lat="45.70549" lon="-1.05434">
        <ele>63.941135</ele>
        <time>2018-01-10T14:19:03.738Z</time>
      </trkpt>
      <trkpt lat="45.70532" lon="-1.05456">
        <ele>65.019211</ele>
        <time>2018-01-10T14:19:09.741Z</time>
      </trkpt>
      <trkpt lat="45.70523" lon="-1.05483">
        <ele>65.476486</ele>
        <time>2018-01-10T14:19:17.741Z</time>
      </trkpt>
      <trkpt lat="45.70529" lon="-1.05513">
        <ele>65.407066</ele>
        <time>2018-01-10T14:19:23.739Z</time>
      </trkpt>
      <trkpt lat="45.7054" lon="-1.05544">
        <ele>65.191696</ele>
        <time>2018-01-10T14:19:29.740Z</time>
      </trkpt>
      <trkpt lat="45.70551" lon="-1.05576">
        <ele>64.32637</ele>
        <time>2018-01-10T14:19:35.735Z</time>
      </trkpt>
      <trkpt lat="45.70564" lon="-1.05604">
        <ele>64.020477</ele>
        <time>2018-01-10T14:19:41.734Z</time>
      </trkpt>
      <trkpt lat="45.70579" lon="-1.05631">
        <ele>65.907364</ele>
        <time>2018-01-10T14:19:46.739Z</time>
      </trkpt>
      <trkpt lat="45.70587" lon="-1.0566">
        <ele>68.08194</ele>
        <time>2018-01-10T14:19:51.793Z</time>
      </trkpt>
      <trkpt lat="45.706" lon="-1.05688">
        <ele>68.126991</ele>
        <time>2018-01-10T14:19:57.739Z</time>
      </trkpt>
      <trkpt lat="45.70604" lon="-1.05733">
        <ele>65.880638</ele>
        <time>2018-01-10T14:20:04.741Z</time>
      </trkpt>
      <trkpt lat="45.70606" lon="-1.05777">
        <ele>66.763992</ele>
        <time>2018-01-10T14:20:11.956Z</time>
      </trkpt>
      <trkpt lat="45.70605" lon="-1.0581">
        <ele>66.331627</ele>
        <time>2018-01-10T14:20:17.745Z</time>
      </trkpt>
      <trkpt lat="45.70612" lon="-1.05841">
        <ele>67.200943</ele>
        <time>2018-01-10T14:20:23.743Z</time>
      </trkpt>
      <trkpt lat="45.70629" lon="-1.05865">
        <ele>68.652122</ele>
        <time>2018-01-10T14:20:29.743Z</time>
      </trkpt>
      <trkpt lat="45.70656" lon="-1.05883">
        <ele>70.114731</ele>
        <time>2018-01-10T14:20:37.739Z</time>
      </trkpt>
      <trkpt lat="45.70675" lon="-1.05898">
        <ele>69.84539</ele>
        <time>2018-01-10T14:20:43.740Z</time>
      </trkpt>
      <trkpt lat="45.70698" lon="-1.05904">
        <ele>68.392685</ele>
        <time>2018-01-10T14:20:50.736Z</time>
      </trkpt>
      <trkpt lat="45.70716" lon="-1.05915">
        <ele>67.38221</ele>
        <time>2018-01-10T14:20:56.738Z</time>
      </trkpt>
      <trkpt lat="45.70735" lon="-1.05926">
        <ele>65.201424</ele>
        <time>2018-01-10T14:21:03.759Z</time>
      </trkpt>
      <trkpt lat="45.70749" lon="-1.05912">
        <ele>63.01812</ele>
        <time>2018-01-10T14:21:14.737Z</time>
      </trkpt>
      <trkpt lat="45.70772" lon="-1.05895">
        <ele>61.552143</ele>
        <time>2018-01-10T14:21:22.748Z</time>
      </trkpt>
      <trkpt lat="45.70791" lon="-1.05881">
        <ele>60.511997</ele>
        <time>2018-01-10T14:21:28.738Z</time>
      </trkpt>
      <trkpt lat="45.70808" lon="-1.05867">
        <ele>59.899403</ele>
        <time>2018-01-10T14:21:34.735Z</time>
      </trkpt>
      <trkpt lat="45.70818" lon="-1.05862">
        <ele>59.617546</ele>
        <time>2018-01-10T14:21:39.746Z</time>
      </trkpt>
      <trkpt lat="45.70834" lon="-1.05843">
        <ele>59.230209</ele>
        <time>2018-01-10T14:21:48.735Z</time>
      </trkpt>
      <trkpt lat="45.70837" lon="-1.0583">
        <ele>58.362148</ele>
        <time>2018-01-10T14:21:57.736Z</time>
      </trkpt>
      <trkpt lat="45.70841" lon="-1.05818">
        <ele>58.597275</ele>
        <time>2018-01-10T14:22:03.738Z</time>
      </trkpt>
      <trkpt lat="45.70848" lon="-1.05809">
        <ele>58.410927</ele>
        <time>2018-01-10T14:22:09.735Z</time>
      </trkpt>
      <trkpt lat="45.70855" lon="-1.05783">
        <ele>58.084442</ele>
        <time>2018-01-10T14:22:21.736Z</time>
      </trkpt>
      <trkpt lat="45.70856" lon="-1.05768">
        <ele>56.659477</ele>
        <time>2018-01-10T14:22:37.734Z</time>
      </trkpt>
      <trkpt lat="45.70854" lon="-1.05751">
        <ele>55.516712</ele>
        <time>2018-01-10T14:22:43.737Z</time>
      </trkpt>
      <trkpt lat="45.70849" lon="-1.05734">
        <ele>54.722069</ele>
        <time>2018-01-10T14:22:48.739Z</time>
      </trkpt>
      <trkpt lat="45.70833" lon="-1.057">
        <ele>54.147587</ele>
        <time>2018-01-10T14:22:57.738Z</time>
      </trkpt>
      <trkpt lat="45.70835" lon="-1.05683">
        <ele>53.724735</ele>
        <time>2018-01-10T14:23:02.775Z</time>
      </trkpt>
      <trkpt lat="45.70838" lon="-1.0567">
        <ele>53.39629</ele>
        <time>2018-01-10T14:23:10.732Z</time>
      </trkpt>
      <trkpt lat="45.70836" lon="-1.05657">
        <ele>54.245487</ele>
        <time>2018-01-10T14:23:18.737Z</time>
      </trkpt>
      <trkpt lat="45.70828" lon="-1.05634">
        <ele>55.257923</ele>
        <time>2018-01-10T14:23:32.733Z</time>
      </trkpt>
      <trkpt lat="45.70821" lon="-1.05623">
        <ele>55.070633</ele>
        <time>2018-01-10T14:23:39.734Z</time>
      </trkpt>
      <trkpt lat="45.70823" lon="-1.05591">
        <ele>55.925694</ele>
        <time>2018-01-10T14:23:47.735Z</time>
      </trkpt>
      <trkpt lat="45.70838" lon="-1.05579">
        <ele>56.091583</ele>
        <time>2018-01-10T14:23:57.735Z</time>
      </trkpt>
      <trkpt lat="45.70848" lon="-1.05554">
        <ele>55.874977</ele>
        <time>2018-01-10T14:24:08.738Z</time>
      </trkpt>
      <trkpt lat="45.70843" lon="-1.05542">
        <ele>55.827026</ele>
        <time>2018-01-10T14:24:15.732Z</time>
      </trkpt>
      <trkpt lat="45.70834" lon="-1.05538">
        <ele>55.845589</ele>
        <time>2018-01-10T14:24:20.732Z</time>
      </trkpt>
      <trkpt lat="45.70828" lon="-1.05529">
        <ele>55.543785</ele>
        <time>2018-01-10T14:24:32.734Z</time>
      </trkpt>
      <trkpt lat="45.70825" lon="-1.05516">
        <ele>55.302299</ele>
        <time>2018-01-10T14:24:38.737Z</time>
      </trkpt>
      <trkpt lat="45.70816" lon="-1.05523">
        <ele>55.546261</ele>
        <time>2018-01-10T14:24:48.742Z</time>
      </trkpt>
      <trkpt lat="45.70811" lon="-1.05512">
        <ele>55.280212</ele>
        <time>2018-01-10T14:24:57.737Z</time>
      </trkpt>
      <trkpt lat="45.70812" lon="-1.05499">
        <ele>55.087914</ele>
        <time>2018-01-10T14:25:02.738Z</time>
      </trkpt>
      <trkpt lat="45.70819" lon="-1.05486">
        <ele>55.347263</ele>
        <time>2018-01-10T14:25:09.734Z</time>
      </trkpt>
      <trkpt lat="45.70831" lon="-1.05465">
        <ele>55.613903</ele>
        <time>2018-01-10T14:25:16.733Z</time>
      </trkpt>
      <trkpt lat="45.70839" lon="-1.05454">
        <ele>55.974934</ele>
        <time>2018-01-10T14:25:21.735Z</time>
      </trkpt>
      <trkpt lat="45.70859" lon="-1.05442">
        <ele>56.465763</ele>
        <time>2018-01-10T14:25:31.734Z</time>
      </trkpt>
      <trkpt lat="45.70869" lon="-1.05435">
        <ele>56.563686</ele>
        <time>2018-01-10T14:25:37.734Z</time>
      </trkpt>
      <trkpt lat="45.70877" lon="-1.05442">
        <ele>56.168217</ele>
        <time>2018-01-10T14:25:44.733Z</time>
      </trkpt>
      <trkpt lat="45.70884" lon="-1.05454">
        <ele>55.800842</ele>
        <time>2018-01-10T14:25:52.738Z</time>
      </trkpt>
      <trkpt lat="45.70891" lon="-1.05467">
        <ele>55.633999</ele>
        <time>2018-01-10T14:25:59.733Z</time>
      </trkpt>
      <trkpt lat="45.70899" lon="-1.05495">
        <ele>55.831993</ele>
        <time>2018-01-10T14:26:09.744Z</time>
      </trkpt>
      <trkpt lat="45.709" lon="-1.05528">
        <ele>55.757912</ele>
        <time>2018-01-10T14:26:20.722Z</time>
      </trkpt>
      <trkpt lat="45.70901" lon="-1.05555">
        <ele>55.607468</ele>
        <time>2018-01-10T14:26:28.734Z</time>
      </trkpt>
      <trkpt lat="45.70909" lon="-1.05565">
        <ele>54.898289</ele>
        <time>2018-01-10T14:26:36.733Z</time>
      </trkpt>
      <trkpt lat="45.70914" lon="-1.05577">
        <ele>53.330517</ele>
        <time>2018-01-10T14:26:44.732Z</time>
      </trkpt>
      <trkpt lat="45.70918" lon="-1.0559">
        <ele>51.842655</ele>
        <time>2018-01-10T14:26:49.758Z</time>
      </trkpt>
      <trkpt lat="45.70918" lon="-1.05621">
        <ele>50.614265</ele>
        <time>2018-01-10T14:26:56.734Z</time>
      </trkpt>
      <trkpt lat="45.70928" lon="-1.05633">
        <ele>51.306515</ele>
        <time>2018-01-10T14:27:14.734Z</time>
      </trkpt>
      <trkpt lat="45.70946" lon="-1.05618">
        <ele>50.739162</ele>
        <time>2018-01-10T14:27:26.728Z</time>
      </trkpt>
      <trkpt lat="45.70973" lon="-1.05598">
        <ele>50.968952</ele>
        <time>2018-01-10T14:27:38.739Z</time>
      </trkpt>
      <trkpt lat="45.70989" lon="-1.05578">
        <ele>52.251816</ele>
        <time>2018-01-10T14:27:45.863Z</time>
      </trkpt>
      <trkpt lat="45.71" lon="-1.05555">
        <ele>54.312332</ele>
        <time>2018-01-10T14:27:58.731Z</time>
      </trkpt>
      <trkpt lat="45.70999" lon="-1.05542">
        <ele>55.224903</ele>
        <time>2018-01-10T14:28:07.715Z</time>
      </trkpt>
      <trkpt lat="45.71003" lon="-1.05527">
        <ele>55.03389</ele>
        <time>2018-01-10T14:28:12.727Z</time>
      </trkpt>
      <trkpt lat="45.71009" lon="-1.05503">
        <ele>55.017738</ele>
        <time>2018-01-10T14:28:21.732Z</time>
      </trkpt>
      <trkpt lat="45.71018" lon="-1.05496">
        <ele>55.241684</ele>
        <time>2018-01-10T14:28:30.727Z</time>
      </trkpt>
      <trkpt lat="45.71055" lon="-1.05512">
        <ele>68.042511</ele>
        <time>2018-01-10T14:30:32.748Z</time>
      </trkpt>
      <trkpt lat="45.71067" lon="-1.05528">
        <ele>69.673416</ele>
        <time>2018-01-10T14:30:41.728Z</time>
      </trkpt>
      <trkpt lat="45.71076" lon="-1.05555">
        <ele>70.003525</ele>
        <time>2018-01-10T14:30:49.738Z</time>
      </trkpt>
      <trkpt lat="45.71089" lon="-1.05575">
        <ele>69.458443</ele>
        <time>2018-01-10T14:30:57.741Z</time>
      </trkpt>
      <trkpt lat="45.71105" lon="-1.05593">
        <ele>68.731918</ele>
        <time>2018-01-10T14:31:05.731Z</time>
      </trkpt>
      <trkpt lat="45.71125" lon="-1.056">
        <ele>68.520424</ele>
        <time>2018-01-10T14:31:13.732Z</time>
      </trkpt>
      <trkpt lat="45.71139" lon="-1.05579">
        <ele>68.165009</ele>
        <time>2018-01-10T14:31:19.731Z</time>
      </trkpt>
      <trkpt lat="45.71157" lon="-1.05564">
        <ele>67.276306</ele>
        <time>2018-01-10T14:31:27.762Z</time>
      </trkpt>
      <trkpt lat="45.71167" lon="-1.05571">
        <ele>66.712471</ele>
        <time>2018-01-10T14:31:34.730Z</time>
      </trkpt>
      <trkpt lat="45.71173" lon="-1.05581">
        <ele>66.113564</ele>
        <time>2018-01-10T14:31:39.733Z</time>
      </trkpt>
      <trkpt lat="45.71188" lon="-1.05607">
        <ele>64.95562</ele>
        <time>2018-01-10T14:31:49.733Z</time>
      </trkpt>
      <trkpt lat="45.71202" lon="-1.05624">
        <ele>64.214546</ele>
        <time>2018-01-10T14:31:58.730Z</time>
      </trkpt>
      <trkpt lat="45.7121" lon="-1.05635">
        <ele>63.685799</ele>
        <time>2018-01-10T14:32:05.734Z</time>
      </trkpt>
      <trkpt lat="45.71221" lon="-1.05657">
        <ele>61.584457</ele>
        <time>2018-01-10T14:32:15.866Z</time>
      </trkpt>
      <trkpt lat="45.71225" lon="-1.05669">
        <ele>58.773991</ele>
        <time>2018-01-10T14:32:26.760Z</time>
      </trkpt>
      <trkpt lat="45.71235" lon="-1.05673">
        <ele>55.697136</ele>
        <time>2018-01-10T14:32:42.746Z</time>
      </trkpt>
      <trkpt lat="45.71239" lon="-1.05688">
        <ele>53.884125</ele>
        <time>2018-01-10T14:32:49.734Z</time>
      </trkpt>
      <trkpt lat="45.71245" lon="-1.05699">
        <ele>52.847137</ele>
        <time>2018-01-10T14:32:54.739Z</time>
      </trkpt>
      <trkpt lat="45.71248" lon="-1.05714">
        <ele>52.117401</ele>
        <time>2018-01-10T14:33:00.738Z</time>
      </trkpt>
      <trkpt lat="45.71257" lon="-1.0574">
        <ele>52.30685</ele>
        <time>2018-01-10T14:33:10.750Z</time>
      </trkpt>
      <trkpt lat="45.71259" lon="-1.05771">
        <ele>53.076797</ele>
        <time>2018-01-10T14:33:18.889Z</time>
      </trkpt>
      <trkpt lat="45.71264" lon="-1.058">
        <ele>55.745094</ele>
        <time>2018-01-10T14:33:26.738Z</time>
      </trkpt>
      <trkpt lat="45.71267" lon="-1.05814">
        <ele>56.852184</ele>
        <time>2018-01-10T14:33:31.738Z</time>
      </trkpt>
      <trkpt lat="45.71275" lon="-1.05822">
        <ele>57.804028</ele>
        <time>2018-01-10T14:33:37.739Z</time>
      </trkpt>
      <trkpt lat="45.71279" lon="-1.05836">
        <ele>57.935314</ele>
        <time>2018-01-10T14:33:43.923Z</time>
      </trkpt>
      <trkpt lat="45.71279" lon="-1.05866">
        <ele>56.789261</ele>
        <time>2018-01-10T14:33:53.735Z</time>
      </trkpt>
      <trkpt lat="45.7127" lon="-1.05873">
        <ele>55.50174</ele>
        <time>2018-01-10T14:33:58.760Z</time>
      </trkpt>
      <trkpt lat="45.71251" lon="-1.05878">
        <ele>53.507874</ele>
        <time>2018-01-10T14:34:04.756Z</time>
      </trkpt>
      <trkpt lat="45.71233" lon="-1.05884">
        <ele>51.051834</ele>
        <time>2018-01-10T14:34:12.741Z</time>
      </trkpt>
      <trkpt lat="45.71214" lon="-1.05895">
        <ele>48.448036</ele>
        <time>2018-01-10T14:34:19.731Z</time>
      </trkpt>
      <trkpt lat="45.71218" lon="-1.05915">
        <ele>46.261932</ele>
        <time>2018-01-10T14:34:30.725Z</time>
      </trkpt>
      <trkpt lat="45.71226" lon="-1.05932">
        <ele>44.548454</ele>
        <time>2018-01-10T14:34:35.725Z</time>
      </trkpt>
      <trkpt lat="45.71233" lon="-1.05943">
        <ele>42.904861</ele>
        <time>2018-01-10T14:34:40.726Z</time>
      </trkpt>
      <trkpt lat="45.71235" lon="-1.05971">
        <ele>41.575596</ele>
        <time>2018-01-10T14:34:47.723Z</time>
      </trkpt>
      <trkpt lat="45.7122" lon="-1.06017">
        <ele>52.101376</ele>
        <time>2018-01-10T14:38:21.721Z</time>
      </trkpt>
      <trkpt lat="45.71214" lon="-1.06028">
        <ele>60.132427</ele>
        <time>2018-01-10T14:39:12.725Z</time>
      </trkpt>
      <trkpt lat="45.71212" lon="-1.06044">
        <ele>60.742905</ele>
        <time>2018-01-10T14:39:31.720Z</time>
      </trkpt>
      <trkpt lat="45.71211" lon="-1.06058">
        <ele>60.663971</ele>
        <time>2018-01-10T14:39:52.725Z</time>
      </trkpt>
      <trkpt lat="45.71205" lon="-1.0607">
        <ele>55.806362</ele>
        <time>2018-01-10T14:42:31.746Z</time>
      </trkpt>
      <trkpt lat="45.71198" lon="-1.06079">
        <ele>58.209503</ele>
        <time>2018-01-10T14:42:57.716Z</time>
      </trkpt>
      <trkpt lat="45.71189" lon="-1.06085">
        <ele>59.683361</ele>
        <time>2018-01-10T14:43:08.726Z</time>
      </trkpt>
      <trkpt lat="45.71186" lon="-1.06098">
        <ele>59.935642</ele>
        <time>2018-01-10T14:43:13.869Z</time>
      </trkpt>
      <trkpt lat="45.71183" lon="-1.06111">
        <ele>60.631817</ele>
        <time>2018-01-10T14:43:20.758Z</time>
      </trkpt>
      <trkpt lat="45.71179" lon="-1.06126">
        <ele>61.10318</ele>
        <time>2018-01-10T14:43:25.836Z</time>
      </trkpt>
      <trkpt lat="45.71173" lon="-1.06137">
        <ele>61.434666</ele>
        <time>2018-01-10T14:43:32.725Z</time>
      </trkpt>
      <trkpt lat="45.7117" lon="-1.0615">
        <ele>61.760067</ele>
        <time>2018-01-10T14:43:37.746Z</time>
      </trkpt>
      <trkpt lat="45.71162" lon="-1.06158">
        <ele>64.206924</ele>
        <time>2018-01-10T14:44:16.745Z</time>
      </trkpt>
      <trkpt lat="45.71147" lon="-1.06182">
        <ele>62.841896</ele>
        <time>2018-01-10T14:44:29.752Z</time>
      </trkpt>
      <trkpt lat="45.71135" lon="-1.06206">
        <ele>62.341747</ele>
        <time>2018-01-10T14:44:36.761Z</time>
      </trkpt>
      <trkpt lat="45.71126" lon="-1.06232">
        <ele>61.545071</ele>
        <time>2018-01-10T14:44:46.744Z</time>
      </trkpt>
      <trkpt lat="45.71115" lon="-1.06254">
        <ele>61.017704</ele>
        <time>2018-01-10T14:44:53.752Z</time>
      </trkpt>
      <trkpt lat="45.71103" lon="-1.06274">
        <ele>60.858982</ele>
        <time>2018-01-10T14:45:02.752Z</time>
      </trkpt>
      <trkpt lat="45.71096" lon="-1.06284">
        <ele>60.509819</ele>
        <time>2018-01-10T14:45:08.753Z</time>
      </trkpt>
      <trkpt lat="45.71106" lon="-1.06311">
        <ele>60.055546</ele>
        <time>2018-01-10T14:45:18.759Z</time>
      </trkpt>
      <trkpt lat="45.71116" lon="-1.06335">
        <ele>59.255341</ele>
        <time>2018-01-10T14:45:25.750Z</time>
      </trkpt>
      <trkpt lat="45.71127" lon="-1.0636">
        <ele>58.405983</ele>
        <time>2018-01-10T14:45:32.761Z</time>
      </trkpt>
      <trkpt lat="45.7114" lon="-1.06386">
        <ele>57.587914</ele>
        <time>2018-01-10T14:45:41.739Z</time>
      </trkpt>
      <trkpt lat="45.71152" lon="-1.06408">
        <ele>56.962902</ele>
        <time>2018-01-10T14:45:47.728Z</time>
      </trkpt>
      <trkpt lat="45.7117" lon="-1.06432">
        <ele>56.191048</ele>
        <time>2018-01-10T14:45:54.766Z</time>
      </trkpt>
      <trkpt lat="45.71189" lon="-1.06449">
        <ele>56.12109</ele>
        <time>2018-01-10T14:46:01.780Z</time>
      </trkpt>
      <trkpt lat="45.71204" lon="-1.06468">
        <ele>56.699768</ele>
        <time>2018-01-10T14:46:07.913Z</time>
      </trkpt>
      <trkpt lat="45.71216" lon="-1.06492">
        <ele>57.002495</ele>
        <time>2018-01-10T14:46:14.755Z</time>
      </trkpt>
      <trkpt lat="45.71226" lon="-1.0652">
        <ele>57.25452</ele>
        <time>2018-01-10T14:46:22.937Z</time>
      </trkpt>
      <trkpt lat="45.71234" lon="-1.06546">
        <ele>57.105957</ele>
        <time>2018-01-10T14:46:28.762Z</time>
      </trkpt>
      <trkpt lat="45.71241" lon="-1.06571">
        <ele>56.044437</ele>
        <time>2018-01-10T14:46:36.732Z</time>
      </trkpt>
      <trkpt lat="45.71245" lon="-1.06583">
        <ele>55.178612</ele>
        <time>2018-01-10T14:46:41.769Z</time>
      </trkpt>
      <trkpt lat="45.71255" lon="-1.06579">
        <ele>54.298851</ele>
        <time>2018-01-10T14:46:47.777Z</time>
      </trkpt>
      <trkpt lat="45.71272" lon="-1.06591">
        <ele>53.138962</ele>
        <time>2018-01-10T14:46:57.776Z</time>
      </trkpt>
      <trkpt lat="45.71287" lon="-1.06611">
        <ele>50.534767</ele>
        <time>2018-01-10T14:47:11.778Z</time>
      </trkpt>
      <trkpt lat="45.71297" lon="-1.06612">
        <ele>49.468781</ele>
        <time>2018-01-10T14:47:24.867Z</time>
      </trkpt>
      <trkpt lat="45.71306" lon="-1.06614">
        <ele>50.069813</ele>
        <time>2018-01-10T14:48:29.964Z</time>
      </trkpt>
      <trkpt lat="45.71313" lon="-1.06623">
        <ele>50.854763</ele>
        <time>2018-01-10T14:48:39.740Z</time>
      </trkpt>
      <trkpt lat="45.7133" lon="-1.06618">
        <ele>43.022316</ele>
        <time>2018-01-10T14:49:33.751Z</time>
      </trkpt>
      <trkpt lat="45.71348" lon="-1.06615">
        <ele>42.686825</ele>
        <time>2018-01-10T14:49:43.752Z</time>
      </trkpt>
      <trkpt lat="45.71357" lon="-1.0661">
        <ele>42.669308</ele>
        <time>2018-01-10T14:49:48.753Z</time>
      </trkpt>
      <trkpt lat="45.71364" lon="-1.06598">
        <ele>42.265812</ele>
        <time>2018-01-10T14:49:55.751Z</time>
      </trkpt>
      <trkpt lat="45.71369" lon="-1.06587">
        <ele>42.150047</ele>
        <time>2018-01-10T14:50:02.747Z</time>
      </trkpt>
      <trkpt lat="45.7137" lon="-1.06569">
        <ele>41.912601</ele>
        <time>2018-01-10T14:50:08.731Z</time>
      </trkpt>
      <trkpt lat="45.71366" lon="-1.06538">
        <ele>41.416451</ele>
        <time>2018-01-10T14:50:16.751Z</time>
      </trkpt>
      <trkpt lat="45.71365" lon="-1.06522">
        <ele>41.447086</ele>
        <time>2018-01-10T14:50:22.752Z</time>
      </trkpt>
      <trkpt lat="45.71359" lon="-1.06491">
        <ele>42.360542</ele>
        <time>2018-01-10T14:50:35.755Z</time>
      </trkpt>
      <trkpt lat="45.71355" lon="-1.06463">
        <ele>42.510075</ele>
        <time>2018-01-10T14:50:43.749Z</time>
      </trkpt>
      <trkpt lat="45.71358" lon="-1.06448">
        <ele>42.976234</ele>
        <time>2018-01-10T14:50:49.748Z</time>
      </trkpt>
      <trkpt lat="45.71365" lon="-1.06416">
        <ele>43.575142</ele>
        <time>2018-01-10T14:50:56.814Z</time>
      </trkpt>
      <trkpt lat="45.7137" lon="-1.06389">
        <ele>44.159187</ele>
        <time>2018-01-10T14:51:04.759Z</time>
      </trkpt>
      <trkpt lat="45.7138" lon="-1.06355">
        <ele>43.568085</ele>
        <time>2018-01-10T14:51:13.751Z</time>
      </trkpt>
      <trkpt lat="45.7139" lon="-1.06329">
        <ele>43.394867</ele>
        <time>2018-01-10T14:51:20.741Z</time>
      </trkpt>
      <trkpt lat="45.71402" lon="-1.06306">
        <ele>43.95924</ele>
        <time>2018-01-10T14:51:27.751Z</time>
      </trkpt>
      <trkpt lat="45.71421" lon="-1.06293">
        <ele>44.508602</ele>
        <time>2018-01-10T14:51:37.748Z</time>
      </trkpt>
      <trkpt lat="45.71428" lon="-1.06282">
        <ele>45.03783</ele>
        <time>2018-01-10T14:51:44.751Z</time>
      </trkpt>
      <trkpt lat="45.71445" lon="-1.06267">
        <ele>45.924885</ele>
        <time>2018-01-10T14:51:53.727Z</time>
      </trkpt>
      <trkpt lat="45.7145" lon="-1.06254">
        <ele>45.966202</ele>
        <time>2018-01-10T14:51:58.744Z</time>
      </trkpt>
      <trkpt lat="45.71456" lon="-1.06242">
        <ele>45.443455</ele>
        <time>2018-01-10T14:52:03.749Z</time>
      </trkpt>
      <trkpt lat="45.71469" lon="-1.06216">
        <ele>42.497166</ele>
        <time>2018-01-10T14:52:09.723Z</time>
      </trkpt>
      <trkpt lat="45.71497" lon="-1.06189">
        <ele>42.859787</ele>
        <time>2018-01-10T14:52:17.748Z</time>
      </trkpt>
      <trkpt lat="45.71504" lon="-1.06178">
        <ele>43.194664</ele>
        <time>2018-01-10T14:52:22.749Z</time>
      </trkpt>
      <trkpt lat="45.71516" lon="-1.06154">
        <ele>44.07489</ele>
        <time>2018-01-10T14:52:29.756Z</time>
      </trkpt>
      <trkpt lat="45.71524" lon="-1.06131">
        <ele>45.666271</ele>
        <time>2018-01-10T14:52:45.734Z</time>
      </trkpt>
      <trkpt lat="45.71525" lon="-1.06117">
        <ele>45.35284</ele>
        <time>2018-01-10T14:52:53.748Z</time>
      </trkpt>
      <trkpt lat="45.71531" lon="-1.06106">
        <ele>45.273785</ele>
        <time>2018-01-10T14:52:59.746Z</time>
      </trkpt>
      <trkpt lat="45.71538" lon="-1.06096">
        <ele>45.401546</ele>
        <time>2018-01-10T14:53:09.713Z</time>
      </trkpt>
      <trkpt lat="45.71534" lon="-1.06084">
        <ele>46.220642</ele>
        <time>2018-01-10T14:53:30.746Z</time>
      </trkpt>
      <trkpt lat="45.71525" lon="-1.06076">
        <ele>45.059044</ele>
        <time>2018-01-10T14:53:48.718Z</time>
      </trkpt>
      <trkpt lat="45.71527" lon="-1.06063">
        <ele>43.288986</ele>
        <time>2018-01-10T14:54:09.741Z</time>
      </trkpt>
      <trkpt lat="45.71536" lon="-1.0606">
        <ele>45.764469</ele>
        <time>2018-01-10T14:55:02.757Z</time>
      </trkpt>
      <trkpt lat="45.71554" lon="-1.06071">
        <ele>48.237053</ele>
        <time>2018-01-10T14:55:10.749Z</time>
      </trkpt>
      <trkpt lat="45.71561" lon="-1.06046">
        <ele>48.997063</ele>
        <time>2018-01-10T14:55:16.749Z</time>
      </trkpt>
      <trkpt lat="45.71564" lon="-1.0602">
        <ele>48.821529</ele>
        <time>2018-01-10T14:55:24.746Z</time>
      </trkpt>
      <trkpt lat="45.71563" lon="-1.06005">
        <ele>47.843407</ele>
        <time>2018-01-10T14:55:29.768Z</time>
      </trkpt>
      <trkpt lat="45.7157" lon="-1.05977">
        <ele>44.935951</ele>
        <time>2018-01-10T14:55:39.868Z</time>
      </trkpt>
      <trkpt lat="45.71572" lon="-1.05946">
        <ele>42.515568</ele>
        <time>2018-01-10T14:55:46.746Z</time>
      </trkpt>
      <trkpt lat="45.71574" lon="-1.05919">
        <ele>39.67704</ele>
        <time>2018-01-10T14:55:54.733Z</time>
      </trkpt>
      <trkpt lat="45.71577" lon="-1.05906">
        <ele>40.426334</ele>
        <time>2018-01-10T14:56:04.728Z</time>
      </trkpt>
      <trkpt lat="45.71576" lon="-1.05893">
        <ele>41.912773</ele>
        <time>2018-01-10T14:56:11.818Z</time>
      </trkpt>
      <trkpt lat="45.71559" lon="-1.05874">
        <ele>43.358753</ele>
        <time>2018-01-10T14:56:21.751Z</time>
      </trkpt>
      <trkpt lat="45.71551" lon="-1.05867">
        <ele>46.015518</ele>
        <time>2018-01-10T14:56:41.737Z</time>
      </trkpt>
      <trkpt lat="45.7154" lon="-1.05869">
        <ele>46.711758</ele>
        <time>2018-01-10T14:56:47.747Z</time>
      </trkpt>
      <trkpt lat="45.71538" lon="-1.05854">
        <ele>46.680435</ele>
        <time>2018-01-10T14:56:56.724Z</time>
      </trkpt>
      <trkpt lat="45.71537" lon="-1.05839">
        <ele>46.16853</ele>
        <time>2018-01-10T14:57:04.742Z</time>
      </trkpt>
      <trkpt lat="45.71534" lon="-1.05827">
        <ele>45.121727</ele>
        <time>2018-01-10T14:57:15.747Z</time>
      </trkpt>
      <trkpt lat="45.71537" lon="-1.05813">
        <ele>44.32132</ele>
        <time>2018-01-10T14:57:23.746Z</time>
      </trkpt>
      <trkpt lat="45.71531" lon="-1.05802">
        <ele>44.499004</ele>
        <time>2018-01-10T14:57:30.726Z</time>
      </trkpt>
      <trkpt lat="45.71533" lon="-1.0579">
        <ele>44.417007</ele>
        <time>2018-01-10T14:57:36.743Z</time>
      </trkpt>
      <trkpt lat="45.71531" lon="-1.05777">
        <ele>43.590904</ele>
        <time>2018-01-10T14:58:01.742Z</time>
      </trkpt>
      <trkpt lat="45.71521" lon="-1.05779">
        <ele>44.313404</ele>
        <time>2018-01-10T14:58:19.745Z</time>
      </trkpt>
      <trkpt lat="45.71512" lon="-1.05773">
        <ele>43.69355</ele>
        <time>2018-01-10T14:58:28.746Z</time>
      </trkpt>
      <trkpt lat="45.71503" lon="-1.05774">
        <ele>43.387592</ele>
        <time>2018-01-10T14:58:35.844Z</time>
      </trkpt>
      <trkpt lat="45.71491" lon="-1.05778">
        <ele>42.552631</ele>
        <time>2018-01-10T14:58:50.897Z</time>
      </trkpt>
      <trkpt lat="45.71476" lon="-1.05766">
        <ele>42.320282</ele>
        <time>2018-01-10T14:59:00.887Z</time>
      </trkpt>
      <trkpt lat="45.71477" lon="-1.05753">
        <ele>42.466484</ele>
        <time>2018-01-10T14:59:10.817Z</time>
      </trkpt>
      <trkpt lat="45.71485" lon="-1.05744">
        <ele>42.361927</ele>
        <time>2018-01-10T14:59:23.747Z</time>
      </trkpt>
      <trkpt lat="45.715" lon="-1.05728">
        <ele>44.69796</ele>
        <time>2018-01-10T14:59:39.764Z</time>
      </trkpt>
      <trkpt lat="45.71514" lon="-1.0571">
        <ele>46.014774</ele>
        <time>2018-01-10T14:59:48.758Z</time>
      </trkpt>
      <trkpt lat="45.71519" lon="-1.05695">
        <ele>46.263729</ele>
        <time>2018-01-10T14:59:53.854Z</time>
      </trkpt>
      <trkpt lat="45.71526" lon="-1.05683">
        <ele>46.829624</ele>
        <time>2018-01-10T14:59:59.758Z</time>
      </trkpt>
      <trkpt lat="45.71533" lon="-1.05673">
        <ele>47.162682</ele>
        <time>2018-01-10T15:00:04.765Z</time>
      </trkpt>
      <trkpt lat="45.7154" lon="-1.05665">
        <ele>47.415234</ele>
        <time>2018-01-10T15:00:11.777Z</time>
      </trkpt>
      <trkpt lat="45.71549" lon="-1.0566">
        <ele>47.739784</ele>
        <time>2018-01-10T15:00:16.788Z</time>
      </trkpt>
      <trkpt lat="45.71556" lon="-1.05652">
        <ele>48.146996</ele>
        <time>2018-01-10T15:00:22.785Z</time>
      </trkpt>
      <trkpt lat="45.71555" lon="-1.05639">
        <ele>48.554585</ele>
        <time>2018-01-10T15:00:28.949Z</time>
      </trkpt>
      <trkpt lat="45.71547" lon="-1.05631">
        <ele>48.851818</ele>
        <time>2018-01-10T15:00:34.778Z</time>
      </trkpt>
      <trkpt lat="45.7154" lon="-1.05621">
        <ele>48.966492</ele>
        <time>2018-01-10T15:00:41.777Z</time>
      </trkpt>
      <trkpt lat="45.71533" lon="-1.05612">
        <ele>48.9701</ele>
        <time>2018-01-10T15:00:46.782Z</time>
      </trkpt>
      <trkpt lat="45.71526" lon="-1.05602">
        <ele>48.653843</ele>
        <time>2018-01-10T15:00:51.783Z</time>
      </trkpt>
      <trkpt lat="45.71514" lon="-1.05583">
        <ele>47.592953</ele>
        <time>2018-01-10T15:01:01.781Z</time>
      </trkpt>
      <trkpt lat="45.71507" lon="-1.05572">
        <ele>46.83699</ele>
        <time>2018-01-10T15:01:06.783Z</time>
      </trkpt>
      <trkpt lat="45.715" lon="-1.05563">
        <ele>46.052315</ele>
        <time>2018-01-10T15:01:13.759Z</time>
      </trkpt>
      <trkpt lat="45.71494" lon="-1.05552">
        <ele>46.071507</ele>
        <time>2018-01-10T15:01:18.789Z</time>
      </trkpt>
      <trkpt lat="45.71488" lon="-1.05541">
        <ele>46.061058</ele>
        <time>2018-01-10T15:01:23.789Z</time>
      </trkpt>
      <trkpt lat="45.71482" lon="-1.05531">
        <ele>46.012539</ele>
        <time>2018-01-10T15:01:28.792Z</time>
      </trkpt>
      <trkpt lat="45.71478" lon="-1.05519">
        <ele>46.095581</ele>
        <time>2018-01-10T15:01:34.762Z</time>
      </trkpt>
      <trkpt lat="45.71472" lon="-1.05509">
        <ele>45.666969</ele>
        <time>2018-01-10T15:01:40.794Z</time>
      </trkpt>
      <trkpt lat="45.71464" lon="-1.055">
        <ele>45.081505</ele>
        <time>2018-01-10T15:01:46.833Z</time>
      </trkpt>
      <trkpt lat="45.71454" lon="-1.05492">
        <ele>44.725582</ele>
        <time>2018-01-10T15:01:53.793Z</time>
      </trkpt>
      <trkpt lat="45.71438" lon="-1.05477">
        <ele>44.088856</ele>
        <time>2018-01-10T15:02:03.743Z</time>
      </trkpt>
      <trkpt lat="45.71429" lon="-1.05472">
        <ele>43.809952</ele>
        <time>2018-01-10T15:02:09.744Z</time>
      </trkpt>
      <trkpt lat="45.71411" lon="-1.05462">
        <ele>43.55172</ele>
        <time>2018-01-10T15:02:18.749Z</time>
      </trkpt>
      <trkpt lat="45.71392" lon="-1.05447">
        <ele>42.776646</ele>
        <time>2018-01-10T15:02:26.747Z</time>
      </trkpt>
      <trkpt lat="45.71376" lon="-1.05429">
        <ele>43.047855</ele>
        <time>2018-01-10T15:02:34.741Z</time>
      </trkpt>
      <trkpt lat="45.71368" lon="-1.05418">
        <ele>44.628128</ele>
        <time>2018-01-10T15:02:42.752Z</time>
      </trkpt>
      <trkpt lat="45.71351" lon="-1.05401">
        <ele>45.935722</ele>
        <time>2018-01-10T15:02:52.750Z</time>
      </trkpt>
      <trkpt lat="45.71344" lon="-1.05391">
        <ele>46.503471</ele>
        <time>2018-01-10T15:02:57.750Z</time>
      </trkpt>
      <trkpt lat="45.71335" lon="-1.05381">
        <ele>47.640583</ele>
        <time>2018-01-10T15:03:04.766Z</time>
      </trkpt>
      <trkpt lat="45.71322" lon="-1.05361">
        <ele>49.526863</ele>
        <time>2018-01-10T15:03:15.725Z</time>
      </trkpt>
      <trkpt lat="45.71316" lon="-1.0535">
        <ele>49.817223</ele>
        <time>2018-01-10T15:03:20.853Z</time>
      </trkpt>
      <trkpt lat="45.713" lon="-1.05336">
        <ele>55.426231</ele>
        <time>2018-01-10T15:04:03.724Z</time>
      </trkpt>
      <trkpt lat="45.71294" lon="-1.05347">
        <ele>56.547806</ele>
        <time>2018-01-10T15:04:11.721Z</time>
      </trkpt>
      <trkpt lat="45.71287" lon="-1.05358">
        <ele>56.932804</ele>
        <time>2018-01-10T15:04:16.723Z</time>
      </trkpt>
      <trkpt lat="45.71275" lon="-1.0538">
        <ele>56.95565</ele>
        <time>2018-01-10T15:04:24.722Z</time>
      </trkpt>
      <trkpt lat="45.71262" lon="-1.05404">
        <ele>56.998676</ele>
        <time>2018-01-10T15:04:32.801Z</time>
      </trkpt>
      <trkpt lat="45.71248" lon="-1.05426">
        <ele>57.831898</ele>
        <time>2018-01-10T15:04:41.724Z</time>
      </trkpt>
      <trkpt lat="45.71234" lon="-1.05446">
        <ele>58.144875</ele>
        <time>2018-01-10T15:04:49.720Z</time>
      </trkpt>
      <trkpt lat="45.71222" lon="-1.05469">
        <ele>58.061768</ele>
        <time>2018-01-10T15:04:57.724Z</time>
      </trkpt>
      <trkpt lat="45.71217" lon="-1.0548">
        <ele>57.803688</ele>
        <time>2018-01-10T15:05:02.731Z</time>
      </trkpt>
      <trkpt lat="45.71204" lon="-1.055">
        <ele>57.337742</ele>
        <time>2018-01-10T15:05:13.729Z</time>
      </trkpt>
      <trkpt lat="45.712" lon="-1.05513">
        <ele>58.56786</ele>
        <time>2018-01-10T15:05:23.724Z</time>
      </trkpt>
      <trkpt lat="45.71191" lon="-1.05517">
        <ele>59.827545</ele>
        <time>2018-01-10T15:05:36.720Z</time>
      </trkpt>
      <trkpt lat="45.71184" lon="-1.05527">
        <ele>60.135391</ele>
        <time>2018-01-10T15:05:42.723Z</time>
      </trkpt>
      <trkpt lat="45.71177" lon="-1.05538">
        <ele>60.067459</ele>
        <time>2018-01-10T15:05:48.728Z</time>
      </trkpt>
      <trkpt lat="45.71169" lon="-1.05547">
        <ele>60.241886</ele>
        <time>2018-01-10T15:05:54.727Z</time>
      </trkpt>
      <trkpt lat="45.71161" lon="-1.05557">
        <ele>59.712906</ele>
        <time>2018-01-10T15:06:01.729Z</time>
      </trkpt>
      <trkpt lat="45.71153" lon="-1.05565">
        <ele>58.464512</ele>
        <time>2018-01-10T15:06:08.725Z</time>
      </trkpt>
      <trkpt lat="45.71146" lon="-1.05572">
        <ele>57.570011</ele>
        <time>2018-01-10T15:06:15.725Z</time>
      </trkpt>
      <trkpt lat="45.71137" lon="-1.0558">
        <ele>57.132778</ele>
        <time>2018-01-10T15:06:21.727Z</time>
      </trkpt>
      <trkpt lat="45.71124" lon="-1.05596">
        <ele>54.454861</ele>
        <time>2018-01-10T15:06:30.726Z</time>
      </trkpt>
      <trkpt lat="45.71114" lon="-1.05596">
        <ele>55.720245</ele>
        <time>2018-01-10T15:07:11.722Z</time>
      </trkpt>
      <trkpt lat="45.71099" lon="-1.05578">
        <ele>57.138786</ele>
        <time>2018-01-10T15:07:19.721Z</time>
      </trkpt>
      <trkpt lat="45.71092" lon="-1.05567">
        <ele>58.859192</ele>
        <time>2018-01-10T15:07:28.725Z</time>
      </trkpt>
      <trkpt lat="45.71083" lon="-1.05561">
        <ele>60.374508</ele>
        <time>2018-01-10T15:07:36.716Z</time>
      </trkpt>
      <trkpt lat="45.71067" lon="-1.05536">
        <ele>61.816513</ele>
        <time>2018-01-10T15:07:44.726Z</time>
      </trkpt>
      <trkpt lat="45.71056" lon="-1.05512">
        <ele>62.087231</ele>
        <time>2018-01-10T15:07:52.715Z</time>
      </trkpt>
      <trkpt lat="45.71048" lon="-1.05501">
        <ele>62.437702</ele>
        <time>2018-01-10T15:07:57.717Z</time>
      </trkpt>
      <trkpt lat="45.7104" lon="-1.05491">
        <ele>62.872173</ele>
        <time>2018-01-10T15:08:03.733Z</time>
      </trkpt>
      <trkpt lat="45.71029" lon="-1.05469">
        <ele>62.779919</ele>
        <time>2018-01-10T15:08:11.726Z</time>
      </trkpt>
      <trkpt lat="45.71021" lon="-1.05459">
        <ele>62.271725</ele>
        <time>2018-01-10T15:08:18.719Z</time>
      </trkpt>
      <trkpt lat="45.71004" lon="-1.05447">
        <ele>60.769951</ele>
        <time>2018-01-10T15:08:29.728Z</time>
      </trkpt>
      <trkpt lat="45.70987" lon="-1.05427">
        <ele>58.62682</ele>
        <time>2018-01-10T15:08:37.725Z</time>
      </trkpt>
      <trkpt lat="45.70974" lon="-1.05398">
        <ele>57.798622</ele>
        <time>2018-01-10T15:08:43.730Z</time>
      </trkpt>
      <trkpt lat="45.70962" lon="-1.05374">
        <ele>57.760624</ele>
        <time>2018-01-10T15:08:49.728Z</time>
      </trkpt>
      <trkpt lat="45.70946" lon="-1.05353">
        <ele>58.251591</ele>
        <time>2018-01-10T15:08:55.799Z</time>
      </trkpt>
      <trkpt lat="45.70932" lon="-1.05333">
        <ele>58.642025</ele>
        <time>2018-01-10T15:09:01.726Z</time>
      </trkpt>
      <trkpt lat="45.70919" lon="-1.05312">
        <ele>59.120224</ele>
        <time>2018-01-10T15:09:07.861Z</time>
      </trkpt>
      <trkpt lat="45.70902" lon="-1.05291">
        <ele>59.418427</ele>
        <time>2018-01-10T15:09:14.726Z</time>
      </trkpt>
      <trkpt lat="45.70884" lon="-1.05274">
        <ele>58.94978</ele>
        <time>2018-01-10T15:09:21.715Z</time>
      </trkpt>
      <trkpt lat="45.70868" lon="-1.05255">
        <ele>59.126873</ele>
        <time>2018-01-10T15:09:27.796Z</time>
      </trkpt>
      <trkpt lat="45.70852" lon="-1.05236">
        <ele>59.120331</ele>
        <time>2018-01-10T15:09:36.722Z</time>
      </trkpt>
      <trkpt lat="45.70843" lon="-1.05213">
        <ele>59.419128</ele>
        <time>2018-01-10T15:09:44.724Z</time>
      </trkpt>
      <trkpt lat="45.70829" lon="-1.0519">
        <ele>59.883808</ele>
        <time>2018-01-10T15:09:51.803Z</time>
      </trkpt>
      <trkpt lat="45.70815" lon="-1.05166">
        <ele>60.658611</ele>
        <time>2018-01-10T15:09:58.734Z</time>
      </trkpt>
      <trkpt lat="45.70801" lon="-1.05143">
        <ele>60.968613</ele>
        <time>2018-01-10T15:10:06.722Z</time>
      </trkpt>
      <trkpt lat="45.70789" lon="-1.05121">
        <ele>61.571072</ele>
        <time>2018-01-10T15:10:13.719Z</time>
      </trkpt>
      <trkpt lat="45.70777" lon="-1.05098">
        <ele>61.888977</ele>
        <time>2018-01-10T15:10:20.718Z</time>
      </trkpt>
      <trkpt lat="45.70766" lon="-1.05071">
        <ele>62.612465</ele>
        <time>2018-01-10T15:10:27.713Z</time>
      </trkpt>
      <trkpt lat="45.70754" lon="-1.05049">
        <ele>63.40926</ele>
        <time>2018-01-10T15:10:34.723Z</time>
      </trkpt>
      <trkpt lat="45.70741" lon="-1.05024">
        <ele>63.727768</ele>
        <time>2018-01-10T15:10:41.722Z</time>
      </trkpt>
      <trkpt lat="45.70736" lon="-1.04995">
        <ele>63.991894</ele>
        <time>2018-01-10T15:10:49.731Z</time>
      </trkpt>
      <trkpt lat="45.70745" lon="-1.04967">
        <ele>63.935673</ele>
        <time>2018-01-10T15:10:57.768Z</time>
      </trkpt>
      <trkpt lat="45.70746" lon="-1.04938">
        <ele>63.747013</ele>
        <time>2018-01-10T15:11:05.713Z</time>
      </trkpt>
      <trkpt lat="45.70749" lon="-1.0491">
        <ele>62.683681</ele>
        <time>2018-01-10T15:11:14.724Z</time>
      </trkpt>
      <trkpt lat="45.70756" lon="-1.04896">
        <ele>61.83028</ele>
        <time>2018-01-10T15:11:19.724Z</time>
      </trkpt>
      <trkpt lat="45.70757" lon="-1.04866">
        <ele>59.865242</ele>
        <time>2018-01-10T15:11:28.722Z</time>
      </trkpt>
      <trkpt lat="45.70757" lon="-1.04852">
        <ele>58.365063</ele>
        <time>2018-01-10T15:11:36.726Z</time>
      </trkpt>
      <trkpt lat="45.70762" lon="-1.04823">
        <ele>56.086838</ele>
        <time>2018-01-10T15:11:44.725Z</time>
      </trkpt>
      <trkpt lat="45.70773" lon="-1.04799">
        <ele>53.676483</ele>
        <time>2018-01-10T15:11:51.726Z</time>
      </trkpt>
      <trkpt lat="45.7079" lon="-1.04777">
        <ele>51.179893</ele>
        <time>2018-01-10T15:11:58.716Z</time>
      </trkpt>
      <trkpt lat="45.70804" lon="-1.04748">
        <ele>47.786507</ele>
        <time>2018-01-10T15:12:06.724Z</time>
      </trkpt>
      <trkpt lat="45.70815" lon="-1.04722">
        <ele>45.900898</ele>
        <time>2018-01-10T15:12:14.722Z</time>
      </trkpt>
      <trkpt lat="45.70825" lon="-1.047">
        <ele>44.505714</ele>
        <time>2018-01-10T15:12:20.722Z</time>
      </trkpt>
      <trkpt lat="45.70836" lon="-1.04674">
        <ele>42.476875</ele>
        <time>2018-01-10T15:12:29.723Z</time>
      </trkpt>
      <trkpt lat="45.70844" lon="-1.04648">
        <ele>40.170238</ele>
        <time>2018-01-10T15:12:37.722Z</time>
      </trkpt>
      <trkpt lat="45.70857" lon="-1.04625">
        <ele>38.656101</ele>
        <time>2018-01-10T15:12:44.728Z</time>
      </trkpt>
      <trkpt lat="45.70879" lon="-1.04591">
        <ele>38.183857</ele>
        <time>2018-01-10T15:12:52.724Z</time>
      </trkpt>
      <trkpt lat="45.70895" lon="-1.04575">
        <ele>38.072254</ele>
        <time>2018-01-10T15:12:59.723Z</time>
      </trkpt>
      <trkpt lat="45.7091" lon="-1.04554">
        <ele>38.177265</ele>
        <time>2018-01-10T15:13:05.721Z</time>
      </trkpt>
      <trkpt lat="45.70916" lon="-1.04542">
        <ele>38.344456</ele>
        <time>2018-01-10T15:13:10.725Z</time>
      </trkpt>
      <trkpt lat="45.70925" lon="-1.04522">
        <ele>38.471905</ele>
        <time>2018-01-10T15:13:21.723Z</time>
      </trkpt>
      <trkpt lat="45.70917" lon="-1.04492">
        <ele>39.444481</ele>
        <time>2018-01-10T15:13:29.722Z</time>
      </trkpt>
      <trkpt lat="45.70906" lon="-1.04469">
        <ele>40.474651</ele>
        <time>2018-01-10T15:13:35.720Z</time>
      </trkpt>
      <trkpt lat="45.70896" lon="-1.04446">
        <ele>41.480278</ele>
        <time>2018-01-10T15:13:41.721Z</time>
      </trkpt>
      <trkpt lat="45.70885" lon="-1.04422">
        <ele>42.047436</ele>
        <time>2018-01-10T15:13:47.723Z</time>
      </trkpt>
      <trkpt lat="45.70872" lon="-1.044">
        <ele>42.940033</ele>
        <time>2018-01-10T15:13:53.743Z</time>
      </trkpt>
      <trkpt lat="45.7086" lon="-1.04375">
        <ele>44.170944</ele>
        <time>2018-01-10T15:13:59.748Z</time>
      </trkpt>
      <trkpt lat="45.70846" lon="-1.04347">
        <ele>44.960155</ele>
        <time>2018-01-10T15:14:05.724Z</time>
      </trkpt>
      <trkpt lat="45.70835" lon="-1.04318">
        <ele>45.794586</ele>
        <time>2018-01-10T15:14:11.723Z</time>
      </trkpt>
      <trkpt lat="45.70822" lon="-1.04287">
        <ele>45.225258</ele>
        <time>2018-01-10T15:14:17.728Z</time>
      </trkpt>
      <trkpt lat="45.70809" lon="-1.04252">
        <ele>45.810635</ele>
        <time>2018-01-10T15:14:23.721Z</time>
      </trkpt>
      <trkpt lat="45.708" lon="-1.04221">
        <ele>46.354275</ele>
        <time>2018-01-10T15:14:29.724Z</time>
      </trkpt>
      <trkpt lat="45.70791" lon="-1.04187">
        <ele>44.885624</ele>
        <time>2018-01-10T15:14:35.727Z</time>
      </trkpt>
      <trkpt lat="45.70786" lon="-1.04153">
        <ele>46.241287</ele>
        <time>2018-01-10T15:14:41.721Z</time>
      </trkpt>
      <trkpt lat="45.70775" lon="-1.04126">
        <ele>46.049477</ele>
        <time>2018-01-10T15:14:47.724Z</time>
      </trkpt>
      <trkpt lat="45.70753" lon="-1.04116">
        <ele>47.318565</ele>
        <time>2018-01-10T15:14:53.895Z</time>
      </trkpt>
      <trkpt lat="45.70734" lon="-1.04136">
        <ele>50.124207</ele>
        <time>2018-01-10T15:14:59.728Z</time>
      </trkpt>
      <trkpt lat="45.70717" lon="-1.04159">
        <ele>49.718571</ele>
        <time>2018-01-10T15:15:05.741Z</time>
      </trkpt>
      <trkpt lat="45.707" lon="-1.04183">
        <ele>50.377762</ele>
        <time>2018-01-10T15:15:11.723Z</time>
      </trkpt>
      <trkpt lat="45.70684" lon="-1.04207">
        <ele>50.170109</ele>
        <time>2018-01-10T15:15:17.744Z</time>
      </trkpt>
      <trkpt lat="45.7067" lon="-1.04228">
        <ele>49.890945</ele>
        <time>2018-01-10T15:15:23.739Z</time>
      </trkpt>
      <trkpt lat="45.70656" lon="-1.04256">
        <ele>50.012745</ele>
        <time>2018-01-10T15:15:29.748Z</time>
      </trkpt>
      <trkpt lat="45.70644" lon="-1.04283">
        <ele>50.15963</ele>
        <time>2018-01-10T15:15:37.737Z</time>
      </trkpt>
      <trkpt lat="45.70633" lon="-1.04307">
        <ele>50.437366</ele>
        <time>2018-01-10T15:15:43.734Z</time>
      </trkpt>
      <trkpt lat="45.70617" lon="-1.04305">
        <ele>50.875313</ele>
        <time>2018-01-10T15:15:50.739Z</time>
      </trkpt>
      <trkpt lat="45.706" lon="-1.04287">
        <ele>50.31937</ele>
        <time>2018-01-10T15:15:56.727Z</time>
      </trkpt>
      <trkpt lat="45.70582" lon="-1.04273">
        <ele>50.150631</ele>
        <time>2018-01-10T15:16:02.742Z</time>
      </trkpt>
      <trkpt lat="45.70564" lon="-1.0426">
        <ele>49.76244</ele>
        <time>2018-01-10T15:16:08.929Z</time>
      </trkpt>
      <trkpt lat="45.70548" lon="-1.04245">
        <ele>49.271873</ele>
        <time>2018-01-10T15:16:14.756Z</time>
      </trkpt>
      <trkpt lat="45.7053" lon="-1.04229">
        <ele>48.515774</ele>
        <time>2018-01-10T15:16:20.751Z</time>
      </trkpt>
      <trkpt lat="45.70513" lon="-1.04213">
        <ele>48.131413</ele>
        <time>2018-01-10T15:16:26.736Z</time>
      </trkpt>
      <trkpt lat="45.70497" lon="-1.04202">
        <ele>48.092258</ele>
        <time>2018-01-10T15:16:35.746Z</time>
      </trkpt>
      <trkpt lat="45.70478" lon="-1.04189">
        <ele>47.428795</ele>
        <time>2018-01-10T15:16:44.745Z</time>
      </trkpt>
      <trkpt lat="45.70468" lon="-1.04182">
        <ele>46.962433</ele>
        <time>2018-01-10T15:16:49.746Z</time>
      </trkpt>
      <trkpt lat="45.70452" lon="-1.04168">
        <ele>46.573002</ele>
        <time>2018-01-10T15:16:58.726Z</time>
      </trkpt>
      <trkpt lat="45.70433" lon="-1.04155">
        <ele>46.311546</ele>
        <time>2018-01-10T15:17:08.723Z</time>
      </trkpt>
      <trkpt lat="45.70424" lon="-1.04148">
        <ele>46.02599</ele>
        <time>2018-01-10T15:17:13.726Z</time>
      </trkpt>
      <trkpt lat="45.70415" lon="-1.04141">
        <ele>45.818443</ele>
        <time>2018-01-10T15:17:18.729Z</time>
      </trkpt>
      <trkpt lat="45.70396" lon="-1.04128">
        <ele>46.151047</ele>
        <time>2018-01-10T15:17:28.731Z</time>
      </trkpt>
      <trkpt lat="45.70379" lon="-1.04113">
        <ele>46.243832</ele>
        <time>2018-01-10T15:17:38.722Z</time>
      </trkpt>
      <trkpt lat="45.70371" lon="-1.04105">
        <ele>46.813534</ele>
        <time>2018-01-10T15:17:44.721Z</time>
      </trkpt>
      <trkpt lat="45.70364" lon="-1.04096">
        <ele>47.277195</ele>
        <time>2018-01-10T15:17:49.806Z</time>
      </trkpt>
      <trkpt lat="45.70356" lon="-1.04088">
        <ele>47.500984</ele>
        <time>2018-01-10T15:17:54.814Z</time>
      </trkpt>
      <trkpt lat="45.70338" lon="-1.0407">
        <ele>48.007824</ele>
        <time>2018-01-10T15:18:04.721Z</time>
      </trkpt>
      <trkpt lat="45.7033" lon="-1.04061">
        <ele>48.710938</ele>
        <time>2018-01-10T15:18:09.721Z</time>
      </trkpt>
      <trkpt lat="45.70314" lon="-1.04043">
        <ele>49.676643</ele>
        <time>2018-01-10T15:18:18.723Z</time>
      </trkpt>
      <trkpt lat="45.70306" lon="-1.04035">
        <ele>50.033443</ele>
        <time>2018-01-10T15:18:23.723Z</time>
      </trkpt>
      <trkpt lat="45.70292" lon="-1.04015">
        <ele>50.646313</ele>
        <time>2018-01-10T15:18:33.727Z</time>
      </trkpt>
      <trkpt lat="45.70279" lon="-1.03996">
        <ele>51.044434</ele>
        <time>2018-01-10T15:18:43.722Z</time>
      </trkpt>
      <trkpt lat="45.70271" lon="-1.03987">
        <ele>52.017338</ele>
        <time>2018-01-10T15:18:49.722Z</time>
      </trkpt>
      <trkpt lat="45.70263" lon="-1.03978">
        <ele>52.275566</ele>
        <time>2018-01-10T15:18:54.723Z</time>
      </trkpt>
      <trkpt lat="45.70249" lon="-1.03959">
        <ele>52.316307</ele>
        <time>2018-01-10T15:19:03.723Z</time>
      </trkpt>
      <trkpt lat="45.70236" lon="-1.03939">
        <ele>52.573399</ele>
        <time>2018-01-10T15:19:11.720Z</time>
      </trkpt>
      <trkpt lat="45.70221" lon="-1.03917">
        <ele>53.200172</ele>
        <time>2018-01-10T15:19:20.719Z</time>
      </trkpt>
      <trkpt lat="45.70213" lon="-1.03908">
        <ele>53.284847</ele>
        <time>2018-01-10T15:19:25.724Z</time>
      </trkpt>
      <trkpt lat="45.70206" lon="-1.03897">
        <ele>53.264069</ele>
        <time>2018-01-10T15:19:30.725Z</time>
      </trkpt>
      <trkpt lat="45.70193" lon="-1.03877">
        <ele>52.997963</ele>
        <time>2018-01-10T15:19:38.719Z</time>
      </trkpt>
      <trkpt lat="45.70179" lon="-1.03854">
        <ele>52.751553</ele>
        <time>2018-01-10T15:19:48.721Z</time>
      </trkpt>
      <trkpt lat="45.70166" lon="-1.03829">
        <ele>53.039108</ele>
        <time>2018-01-10T15:19:58.720Z</time>
      </trkpt>
      <trkpt lat="45.70159" lon="-1.03818">
        <ele>53.31329</ele>
        <time>2018-01-10T15:20:03.722Z</time>
      </trkpt>
      <trkpt lat="45.70144" lon="-1.03809">
        <ele>53.310192</ele>
        <time>2018-01-10T15:20:19.756Z</time>
      </trkpt>
      <trkpt lat="45.70137" lon="-1.03821">
        <ele>53.229424</ele>
        <time>2018-01-10T15:20:26.718Z</time>
      </trkpt>
      <trkpt lat="45.70133" lon="-1.03833">
        <ele>53.43047</ele>
        <time>2018-01-10T15:20:31.722Z</time>
      </trkpt>
      <trkpt lat="45.70125" lon="-1.03858">
        <ele>53.28484</ele>
        <time>2018-01-10T15:20:39.723Z</time>
      </trkpt>
      <trkpt lat="45.70116" lon="-1.03885">
        <ele>53.81179</ele>
        <time>2018-01-10T15:20:49.724Z</time>
      </trkpt>
      <trkpt lat="45.70108" lon="-1.03911">
        <ele>54.232552</ele>
        <time>2018-01-10T15:20:58.721Z</time>
      </trkpt>
      <trkpt lat="45.70103" lon="-1.03926">
        <ele>54.63979</ele>
        <time>2018-01-10T15:21:03.721Z</time>
      </trkpt>
      <trkpt lat="45.70095" lon="-1.03952">
        <ele>55.664913</ele>
        <time>2018-01-10T15:21:11.714Z</time>
      </trkpt>
      <trkpt lat="45.70087" lon="-1.03978">
        <ele>56.05851</ele>
        <time>2018-01-10T15:21:20.722Z</time>
      </trkpt>
      <trkpt lat="45.7008" lon="-1.04004">
        <ele>56.02626</ele>
        <time>2018-01-10T15:21:28.722Z</time>
      </trkpt>
      <trkpt lat="45.70073" lon="-1.04033">
        <ele>55.917458</ele>
        <time>2018-01-10T15:21:36.718Z</time>
      </trkpt>
      <trkpt lat="45.70064" lon="-1.04059">
        <ele>55.809929</ele>
        <time>2018-01-10T15:21:43.721Z</time>
      </trkpt>
      <trkpt lat="45.70053" lon="-1.04085">
        <ele>55.740349</ele>
        <time>2018-01-10T15:21:49.720Z</time>
      </trkpt>
      <trkpt lat="45.70041" lon="-1.04104">
        <ele>56.209766</ele>
        <time>2018-01-10T15:21:55.717Z</time>
      </trkpt>
      <trkpt lat="45.70027" lon="-1.04124">
        <ele>56.832401</ele>
        <time>2018-01-10T15:22:03.720Z</time>
      </trkpt>
      <trkpt lat="45.70013" lon="-1.04143">
        <ele>57.427288</ele>
        <time>2018-01-10T15:22:10.718Z</time>
      </trkpt>
      <trkpt lat="45.69998" lon="-1.04161">
        <ele>57.701641</ele>
        <time>2018-01-10T15:22:19.721Z</time>
      </trkpt>
      <trkpt lat="45.69989" lon="-1.04161">
        <ele>57.952618</ele>
        <time>2018-01-10T15:22:24.722Z</time>
      </trkpt>
      <trkpt lat="45.69974" lon="-1.0414">
        <ele>58.484146</ele>
        <time>2018-01-10T15:22:34.721Z</time>
      </trkpt>
      <trkpt lat="45.6996" lon="-1.04121">
        <ele>58.683308</ele>
        <time>2018-01-10T15:22:42.787Z</time>
      </trkpt>
      <trkpt lat="45.69945" lon="-1.04098">
        <ele>59.019928</ele>
        <time>2018-01-10T15:22:51.723Z</time>
      </trkpt>
      <trkpt lat="45.69933" lon="-1.04078">
        <ele>59.016922</ele>
        <time>2018-01-10T15:22:59.723Z</time>
      </trkpt>
      <trkpt lat="45.69919" lon="-1.04058">
        <ele>58.729225</ele>
        <time>2018-01-10T15:23:08.721Z</time>
      </trkpt>
      <trkpt lat="45.6991" lon="-1.04034">
        <ele>59.374462</ele>
        <time>2018-01-10T15:23:16.719Z</time>
      </trkpt>
      <trkpt lat="45.69906" lon="-1.0402">
        <ele>59.982227</ele>
        <time>2018-01-10T15:23:21.719Z</time>
      </trkpt>
      <trkpt lat="45.69896" lon="-1.03998">
        <ele>60.62674</ele>
        <time>2018-01-10T15:23:29.724Z</time>
      </trkpt>
      <trkpt lat="45.69882" lon="-1.03975">
        <ele>62.231331</ele>
        <time>2018-01-10T15:23:38.721Z</time>
      </trkpt>
      <trkpt lat="45.69867" lon="-1.03956">
        <ele>63.162987</ele>
        <time>2018-01-10T15:23:49.825Z</time>
      </trkpt>
      <trkpt lat="45.6986" lon="-1.03947">
        <ele>66.045349</ele>
        <time>2018-01-10T15:24:28.716Z</time>
      </trkpt>
      <trkpt lat="45.69854" lon="-1.03936">
        <ele>66.648643</ele>
        <time>2018-01-10T15:24:33.717Z</time>
      </trkpt>
      <trkpt lat="45.69836" lon="-1.03917">
        <ele>66.686546</ele>
        <time>2018-01-10T15:24:41.729Z</time>
      </trkpt>
      <trkpt lat="45.6982" lon="-1.03892">
        <ele>69.460266</ele>
        <time>2018-01-10T15:24:47.722Z</time>
      </trkpt>
      <trkpt lat="45.69804" lon="-1.03866">
        <ele>65.965775</ele>
        <time>2018-01-10T15:24:53.718Z</time>
      </trkpt>
      <trkpt lat="45.69781" lon="-1.03834">
        <ele>64.245064</ele>
        <time>2018-01-10T15:25:00.721Z</time>
      </trkpt>
      <trkpt lat="45.6976" lon="-1.03803">
        <ele>62.246494</ele>
        <time>2018-01-10T15:25:06.720Z</time>
      </trkpt>
      <trkpt lat="45.69738" lon="-1.0377">
        <ele>58.724255</ele>
        <time>2018-01-10T15:25:12.721Z</time>
      </trkpt>
      <trkpt lat="45.69717" lon="-1.03739">
        <ele>54.222874</ele>
        <time>2018-01-10T15:25:18.722Z</time>
      </trkpt>
      <trkpt lat="45.69695" lon="-1.03707">
        <ele>51.062065</ele>
        <time>2018-01-10T15:25:25.720Z</time>
      </trkpt>
      <trkpt lat="45.69676" lon="-1.0368">
        <ele>49.558914</ele>
        <time>2018-01-10T15:25:31.836Z</time>
      </trkpt>
      <trkpt lat="45.69659" lon="-1.03655">
        <ele>50.73954</ele>
        <time>2018-01-10T15:25:37.725Z</time>
      </trkpt>
      <trkpt lat="45.69642" lon="-1.03631">
        <ele>50.936771</ele>
        <time>2018-01-10T15:25:43.719Z</time>
      </trkpt>
      <trkpt lat="45.69627" lon="-1.03612">
        <ele>50.781796</ele>
        <time>2018-01-10T15:25:51.734Z</time>
      </trkpt>
      <trkpt lat="45.69615" lon="-1.03591">
        <ele>50.695343</ele>
        <time>2018-01-10T15:25:59.760Z</time>
      </trkpt>
      <trkpt lat="45.69607" lon="-1.03582">
        <ele>50.811264</ele>
        <time>2018-01-10T15:26:07.718Z</time>
      </trkpt>
      <trkpt lat="45.696" lon="-1.03571">
        <ele>51.204418</ele>
        <time>2018-01-10T15:26:14.711Z</time>
      </trkpt>
      <trkpt lat="45.69591" lon="-1.03561">
        <ele>51.348591</ele>
        <time>2018-01-10T15:26:19.728Z</time>
      </trkpt>
      <trkpt lat="45.69577" lon="-1.03538">
        <ele>51.062717</ele>
        <time>2018-01-10T15:26:28.724Z</time>
      </trkpt>
      <trkpt lat="45.69563" lon="-1.03521">
        <ele>50.210072</ele>
        <time>2018-01-10T15:26:36.722Z</time>
      </trkpt>
      <trkpt lat="45.69549" lon="-1.03501">
        <ele>49.975285</ele>
        <time>2018-01-10T15:26:44.721Z</time>
      </trkpt>
      <trkpt lat="45.69534" lon="-1.03478">
        <ele>49.742672</ele>
        <time>2018-01-10T15:26:54.720Z</time>
      </trkpt>
      <trkpt lat="45.69526" lon="-1.03468">
        <ele>49.546803</ele>
        <time>2018-01-10T15:26:59.728Z</time>
      </trkpt>
      <trkpt lat="45.69512" lon="-1.03448">
        <ele>49.192799</ele>
        <time>2018-01-10T15:27:08.721Z</time>
      </trkpt>
      <trkpt lat="45.69498" lon="-1.03427">
        <ele>49.047325</ele>
        <time>2018-01-10T15:27:17.714Z</time>
      </trkpt>
      <trkpt lat="45.6949" lon="-1.03419">
        <ele>49.232395</ele>
        <time>2018-01-10T15:27:22.719Z</time>
      </trkpt>
      <trkpt lat="45.69469" lon="-1.0341">
        <ele>49.157398</ele>
        <time>2018-01-10T15:27:32.717Z</time>
      </trkpt>
      <trkpt lat="45.69451" lon="-1.03402">
        <ele>48.517323</ele>
        <time>2018-01-10T15:27:40.730Z</time>
      </trkpt>
      <trkpt lat="45.69434" lon="-1.03394">
        <ele>47.935242</ele>
        <time>2018-01-10T15:27:48.719Z</time>
      </trkpt>
      <trkpt lat="45.69415" lon="-1.03384">
        <ele>47.59129</ele>
        <time>2018-01-10T15:27:56.719Z</time>
      </trkpt>
      <trkpt lat="45.69397" lon="-1.03374">
        <ele>47.144718</ele>
        <time>2018-01-10T15:28:04.713Z</time>
      </trkpt>
      <trkpt lat="45.69377" lon="-1.03364">
        <ele>46.561604</ele>
        <time>2018-01-10T15:28:13.722Z</time>
      </trkpt>
      <trkpt lat="45.69356" lon="-1.03351">
        <ele>46.790131</ele>
        <time>2018-01-10T15:28:21.736Z</time>
      </trkpt>
      <trkpt lat="45.69338" lon="-1.03339">
        <ele>46.882786</ele>
        <time>2018-01-10T15:28:28.723Z</time>
      </trkpt>
      <trkpt lat="45.69319" lon="-1.03328">
        <ele>46.793652</ele>
        <time>2018-01-10T15:28:37.718Z</time>
      </trkpt>
      <trkpt lat="45.69298" lon="-1.0332">
        <ele>47.010918</ele>
        <time>2018-01-10T15:28:45.719Z</time>
      </trkpt>
      <trkpt lat="45.69276" lon="-1.0332">
        <ele>47.300808</ele>
        <time>2018-01-10T15:28:53.719Z</time>
      </trkpt>
      <trkpt lat="45.69255" lon="-1.03318">
        <ele>47.136082</ele>
        <time>2018-01-10T15:29:00.721Z</time>
      </trkpt>
      <trkpt lat="45.69234" lon="-1.03316">
        <ele>47.367737</ele>
        <time>2018-01-10T15:29:08.728Z</time>
      </trkpt>
      <trkpt lat="45.69215" lon="-1.03313">
        <ele>47.410435</ele>
        <time>2018-01-10T15:29:16.721Z</time>
      </trkpt>
      <trkpt lat="45.69208" lon="-1.03323">
        <ele>47.668354</ele>
        <time>2018-01-10T15:29:23.726Z</time>
      </trkpt>
      <trkpt lat="45.69205" lon="-1.03352">
        <ele>48.663231</ele>
        <time>2018-01-10T15:29:33.718Z</time>
      </trkpt>
      <trkpt lat="45.69209" lon="-1.03366">
        <ele>49.081978</ele>
        <time>2018-01-10T15:29:38.837Z</time>
      </trkpt>
      <trkpt lat="45.69215" lon="-1.03394">
        <ele>49.27623</ele>
        <time>2018-01-10T15:29:49.734Z</time>
      </trkpt>
      <trkpt lat="45.69223" lon="-1.03419">
        <ele>49.582081</ele>
        <time>2018-01-10T15:29:57.721Z</time>
      </trkpt>
      <trkpt lat="45.69233" lon="-1.03447">
        <ele>49.918945</ele>
        <time>2018-01-10T15:30:05.721Z</time>
      </trkpt>
      <trkpt lat="45.69242" lon="-1.03477">
        <ele>50.107491</ele>
        <time>2018-01-10T15:30:12.721Z</time>
      </trkpt>
      <trkpt lat="45.69252" lon="-1.03501">
        <ele>50.41967</ele>
        <time>2018-01-10T15:30:18.722Z</time>
      </trkpt>
      <trkpt lat="45.69263" lon="-1.03526">
        <ele>50.509392</ele>
        <time>2018-01-10T15:30:24.737Z</time>
      </trkpt>
      <trkpt lat="45.69275" lon="-1.03555">
        <ele>52.060192</ele>
        <time>2018-01-10T15:30:30.723Z</time>
      </trkpt>
      <trkpt lat="45.69289" lon="-1.03584">
        <ele>52.736229</ele>
        <time>2018-01-10T15:30:36.726Z</time>
      </trkpt>
      <trkpt lat="45.693" lon="-1.03611">
        <ele>53.840942</ele>
        <time>2018-01-10T15:30:41.755Z</time>
      </trkpt>
      <trkpt lat="45.69314" lon="-1.03638">
        <ele>54.936684</ele>
        <time>2018-01-10T15:30:47.726Z</time>
      </trkpt>
      <trkpt lat="45.69327" lon="-1.03667">
        <ele>55.018654</ele>
        <time>2018-01-10T15:30:53.724Z</time>
      </trkpt>
      <trkpt lat="45.6934" lon="-1.03694">
        <ele>55.10828</ele>
        <time>2018-01-10T15:30:59.719Z</time>
      </trkpt>
      <trkpt lat="45.69351" lon="-1.03721">
        <ele>56.061836</ele>
        <time>2018-01-10T15:31:04.727Z</time>
      </trkpt>
      <trkpt lat="45.69362" lon="-1.03746">
        <ele>56.147247</ele>
        <time>2018-01-10T15:31:10.751Z</time>
      </trkpt>
      <trkpt lat="45.69373" lon="-1.03769">
        <ele>56.549156</ele>
        <time>2018-01-10T15:31:16.741Z</time>
      </trkpt>
      <trkpt lat="45.69383" lon="-1.03795">
        <ele>56.779152</ele>
        <time>2018-01-10T15:31:22.736Z</time>
      </trkpt>
      <trkpt lat="45.69395" lon="-1.03819">
        <ele>56.973515</ele>
        <time>2018-01-10T15:31:29.751Z</time>
      </trkpt>
      <trkpt lat="45.69406" lon="-1.03846">
        <ele>57.425911</ele>
        <time>2018-01-10T15:31:36.892Z</time>
      </trkpt>
      <trkpt lat="45.69416" lon="-1.03876">
        <ele>57.926624</ele>
        <time>2018-01-10T15:31:44.751Z</time>
      </trkpt>
      <trkpt lat="45.69425" lon="-1.03904">
        <ele>58.513435</ele>
        <time>2018-01-10T15:31:52.753Z</time>
      </trkpt>
      <trkpt lat="45.69432" lon="-1.03928">
        <ele>59.040512</ele>
        <time>2018-01-10T15:31:58.746Z</time>
      </trkpt>
      <trkpt lat="45.69439" lon="-1.03952">
        <ele>59.363209</ele>
        <time>2018-01-10T15:32:04.718Z</time>
      </trkpt>
      <trkpt lat="45.69445" lon="-1.0398">
        <ele>59.739918</ele>
        <time>2018-01-10T15:32:11.722Z</time>
      </trkpt>
      <trkpt lat="45.69452" lon="-1.04008">
        <ele>60.044884</ele>
        <time>2018-01-10T15:32:17.719Z</time>
      </trkpt>
      <trkpt lat="45.69458" lon="-1.04038">
        <ele>61.101822</ele>
        <time>2018-01-10T15:32:23.719Z</time>
      </trkpt>
      <trkpt lat="45.69466" lon="-1.04071">
        <ele>61.364151</ele>
        <time>2018-01-10T15:32:29.718Z</time>
      </trkpt>
      <trkpt lat="45.69473" lon="-1.04101">
        <ele>60.561153</ele>
        <time>2018-01-10T15:32:35.717Z</time>
      </trkpt>
      <trkpt lat="45.69482" lon="-1.04132">
        <ele>60.333042</ele>
        <time>2018-01-10T15:32:41.718Z</time>
      </trkpt>
      <trkpt lat="45.69491" lon="-1.04166">
        <ele>57.689034</ele>
        <time>2018-01-10T15:32:47.719Z</time>
      </trkpt>
      <trkpt lat="45.69499" lon="-1.042">
        <ele>59.768242</ele>
        <time>2018-01-10T15:32:53.718Z</time>
      </trkpt>
      <trkpt lat="45.69507" lon="-1.04243">
        <ele>61.487473</ele>
        <time>2018-01-10T15:33:00.713Z</time>
      </trkpt>
      <trkpt lat="45.69518" lon="-1.04289">
        <ele>61.568367</ele>
        <time>2018-01-10T15:33:08.720Z</time>
      </trkpt>
      <trkpt lat="45.69526" lon="-1.04318">
        <ele>59.0317</ele>
        <time>2018-01-10T15:33:14.712Z</time>
      </trkpt>
      <trkpt lat="45.69533" lon="-1.04352">
        <ele>60.125717</ele>
        <time>2018-01-10T15:33:20.720Z</time>
      </trkpt>
      <trkpt lat="45.69542" lon="-1.04399">
        <ele>61.450333</ele>
        <time>2018-01-10T15:33:28.718Z</time>
      </trkpt>
      <trkpt lat="45.69549" lon="-1.04431">
        <ele>61.375988</ele>
        <time>2018-01-10T15:33:34.721Z</time>
      </trkpt>
      <trkpt lat="45.69556" lon="-1.04458">
        <ele>60.955212</ele>
        <time>2018-01-10T15:33:40.716Z</time>
      </trkpt>
      <trkpt lat="45.69562" lon="-1.04485">
        <ele>61.997593</ele>
        <time>2018-01-10T15:33:46.720Z</time>
      </trkpt>
      <trkpt lat="45.69569" lon="-1.04512">
        <ele>62.210506</ele>
        <time>2018-01-10T15:33:52.719Z</time>
      </trkpt>
      <trkpt lat="45.69575" lon="-1.04538">
        <ele>62.556072</ele>
        <time>2018-01-10T15:33:58.719Z</time>
      </trkpt>
      <trkpt lat="45.69585" lon="-1.04565">
        <ele>63.678604</ele>
        <time>2018-01-10T15:34:05.738Z</time>
      </trkpt>
      <trkpt lat="45.69596" lon="-1.04588">
        <ele>64.414192</ele>
        <time>2018-01-10T15:34:12.726Z</time>
      </trkpt>
      <trkpt lat="45.69585" lon="-1.04612">
        <ele>64.728706</ele>
        <time>2018-01-10T15:34:20.719Z</time>
      </trkpt>
      <trkpt lat="45.69576" lon="-1.04619">
        <ele>63.642063</ele>
        <time>2018-01-10T15:34:37.720Z</time>
      </trkpt>
      <trkpt lat="45.69561" lon="-1.04639">
        <ele>63.788555</ele>
        <time>2018-01-10T15:34:43.723Z</time>
      </trkpt>
      <trkpt lat="45.69545" lon="-1.04661">
        <ele>64.129158</ele>
        <time>2018-01-10T15:34:50.718Z</time>
      </trkpt>
      <trkpt lat="45.69531" lon="-1.04681">
        <ele>64.990097</ele>
        <time>2018-01-10T15:34:56.745Z</time>
      </trkpt>
      <trkpt lat="45.6952" lon="-1.04704">
        <ele>65.776718</ele>
        <time>2018-01-10T15:35:03.718Z</time>
      </trkpt>
      <trkpt lat="45.69508" lon="-1.04728">
        <ele>66.054413</ele>
        <time>2018-01-10T15:35:10.718Z</time>
      </trkpt>
      <trkpt lat="45.69501" lon="-1.04743">
        <ele>66.379196</ele>
        <time>2018-01-10T15:35:15.744Z</time>
      </trkpt>
      <trkpt lat="45.6949" lon="-1.04767">
        <ele>67.423882</ele>
        <time>2018-01-10T15:35:24.711Z</time>
      </trkpt>
      <trkpt lat="45.69481" lon="-1.04793">
        <ele>68.153244</ele>
        <time>2018-01-10T15:35:34.717Z</time>
      </trkpt>
      <trkpt lat="45.69475" lon="-1.04816">
        <ele>69.436478</ele>
        <time>2018-01-10T15:35:45.711Z</time>
      </trkpt>
      <trkpt lat="45.69483" lon="-1.04825">
        <ele>69.732193</ele>
        <time>2018-01-10T15:35:51.718Z</time>
      </trkpt>
    </trkseg>
  </trk>
</gpx>